Time,TemperatureF,DewpointF,PressureIn,WindDirection,WindDirectionDegrees,WindSpeedMPH,WindSpeedGustMPH,Humidity,HourlyPrecipIn,Conditions,Clouds,dailyrainin,SoftwareType,DateUTC
2013-09-17 00:00:00,42.1,40.5,30.31,NNE,27,0.0,0.0,94,0.00,RA,OVC,0.00,WeatherDisplay:10.37,2013-09-17 04:00:00,
2013-09-17 00:01:00,42.1,40.2,30.31,NNE,27,0.0,0.0,93,0.00,RA,OVC,0.00,WeatherDisplay:10.37,2013-09-17 04:01:00,
2013-09-17 00:02:00,42.1,40.5,30.31,NNE,27,0.0,0.0,94,0.00,RA,OVC,0.00,WeatherDisplay:10.37,2013-09-17 04:02:00,
2013-09-17 00:06:00,41.9,40.3,30.31,NNE,27,1.3,2.3,94,0.00,RA,OVC,0.00,WeatherDisplay:10.37,2013-09-17 04:06:00,
2013-09-17 00:07:00,41.9,40.3,30.31,NNE,27,0.2,2.3,94,0.00,RA,OVC,0.00,WeatherDisplay:10.37,2013-09-17 04:07:00,
2013-09-17 00:08:00,41.9,40.3,30.31,NNE,27,0.1,2.3,94,0.00,RA,OVC,0.00,WeatherDisplay:10.37,2013-09-17 04:08:00,
2013-09-17 00:11:00,41.8,40.2,30.31,NNE,27,0.0,0.0,94,0.00,CLR,OVC,0.00,WeatherDisplay:10.37,2013-09-17 04:11:00,
2013-09-17 00:12:00,41.8,40.2,30.31,NNE,27,0.0,0.0,94,0.00,CLR,OVC,0.00,WeatherDisplay:10.37,2013-09-17 04:12:00,
2013-09-17 00:13:00,41.7,40.1,30.32,NNE,27,0.0,0.0,94,0.00,CLR,OVC,0.00,WeatherDisplay:10.37,2013-09-17 04:13:00,
2013-09-17 00:16:00,41.8,40.2,30.31,NNE,27,2.0,3.5,94,0.00,CLR,OVC,0.00,WeatherDisplay:10.37,2013-09-17 04:16:00,
2013-09-17 00:17:00,41.8,40.2,30.31,NNE,27,1.2,2.3,94,0.00,CLR,OVC,0.00,WeatherDisplay:10.37,2013-09-17 04:17:00,
2013-09-17 00:18:00,41.8,40.2,30.31,NNE,27,1.1,2.3,94,0.00,CLR,OVC,0.00,WeatherDisplay:10.37,2013-09-17 04:18:00,
2013-09-17 00:21:00,41.9,40.3,30.31,NNE,27,1.8,3.5,94,0.00,CLR,OVC,0.00,WeatherDisplay:10.37,2013-09-17 04:21:00,
2013-09-17 00:22:00,41.9,40.6,30.32,NNE,27,1.4,2.3,95,0.00,CLR,OVC,0.00,WeatherDisplay:10.37,2013-09-17 04:22:00,
2013-09-17 00:23:00,41.9,40.6,30.32,NNE,27,1.6,2.3,95,0.00,CLR,OVC,0.00,WeatherDisplay:10.37,2013-09-17 04:23:00,
2013-09-17 00:26:00,42.0,40.7,30.32,NNE,27,2.3,3.5,95,0.00,CLR,OVC,0.00,WeatherDisplay:10.37,2013-09-17 04:26:00,
2013-09-17 00:28:00,42.0,40.7,30.32,NNE,27,2.1,2.3,95,0.00,CLR,OVC,0.00,WeatherDisplay:10.37,2013-09-17 04:28:00,
2013-09-17 00:29:00,42.0,40.4,30.32,NNE,27,2.1,3.5,94,0.00,CLR,OVC,0.00,WeatherDisplay:10.37,2013-09-17 04:29:00,
2013-09-17 00:31:00,42.1,40.5,30.32,NNE,27,2.7,3.5,94,0.00,CLR,OVC,0.00,WeatherDisplay:10.37,2013-09-17 04:31:00,
2013-09-17 00:33:00,42.2,40.9,30.32,NNE,27,3.0,3.5,95,0.00,CLR,OVC,0.00,WeatherDisplay:10.37,2013-09-17 04:33:00,
2013-09-17 00:34:00,42.2,40.9,30.32,NNE,27,2.9,3.5,95,0.00,CLR,OVC,0.00,WeatherDisplay:10.37,2013-09-17 04:34:00,
2013-09-17 00:35:00,42.2,40.9,30.32,NNE,27,2.3,3.5,95,0.00,CLR,OVC,0.00,WeatherDisplay:10.37,2013-09-17 04:35:00,
2013-09-17 00:36:00,42.2,40.9,30.32,NNE,27,2.7,4.0,95,0.00,CLR,OVC,0.00,WeatherDisplay:10.37,2013-09-17 04:36:00,
2013-09-17 00:37:00,42.3,41.0,30.32,NNE,27,2.7,3.5,95,0.00,CLR,OVC,0.00,WeatherDisplay:10.37,2013-09-17 04:37:00,
2013-09-17 00:38:00,42.3,41.0,30.32,NNE,27,2.8,3.5,95,0.00,CLR,OVC,0.00,WeatherDisplay:10.37,2013-09-17 04:38:00,
2013-09-17 00:39:00,42.3,41.0,30.32,NNE,27,2.8,3.5,95,0.00,CLR,OVC,0.00,WeatherDisplay:10.37,2013-09-17 04:39:00,
2013-09-17 00:40:00,42.3,40.7,30.32,NNE,27,1.7,3.5,94,0.00,CLR,OVC,0.00,WeatherDisplay:10.37,2013-09-17 04:40:00,
2013-09-17 00:42:00,42.4,40.8,30.32,NNE,27,1.0,2.3,94,0.00,CLR,OVC,0.00,WeatherDisplay:10.37,2013-09-17 04:42:00,
2013-09-17 00:44:00,42.4,40.8,30.32,NNE,27,0.4,2.3,94,0.00,CLR,OVC,0.00,WeatherDisplay:10.37,2013-09-17 04:44:00,
2013-09-17 00:45:00,42.4,40.8,30.33,NNE,27,0.0,1.2,94,0.00,CLR,OVC,0.00,WeatherDisplay:10.37,2013-09-17 04:45:00,
2013-09-17 00:46:00,42.4,40.8,30.33,NNE,27,0.3,1.0,94,0.00,CLR,OVC,0.00,WeatherDisplay:10.37,2013-09-17 04:46:00,
2013-09-17 00:47:00,42.4,40.8,30.33,NNE,27,0.6,1.2,94,0.00,CLR,OVC,0.00,WeatherDisplay:10.37,2013-09-17 04:47:00,
2013-09-17 00:49:00,42.4,40.8,30.33,NNE,27,0.2,1.0,94,0.00,CLR,OVC,0.00,WeatherDisplay:10.37,2013-09-17 04:49:00,
2013-09-17 00:50:00,42.3,40.7,30.33,NNE,27,0.6,1.2,94,0.00,CLR,OVC,0.00,WeatherDisplay:10.37,2013-09-17 04:50:00,
2013-09-17 00:51:00,42.3,40.7,30.33,NNE,27,1.2,2.3,94,0.00,CLR,OVC,0.00,WeatherDisplay:10.37,2013-09-17 04:51:00,
2013-09-17 00:52:00,42.2,40.6,30.33,NNE,27,0.7,2.3,94,0.00,CLR,OVC,0.00,WeatherDisplay:10.37,2013-09-17 04:52:00,
2013-09-17 00:55:00,42.1,40.5,30.33,NNE,27,1.2,3.0,94,0.00,CLR,OVC,0.00,WeatherDisplay:10.37,2013-09-17 04:55:00,
2013-09-17 00:56:00,42.0,40.4,30.33,NNE,27,2.8,3.5,94,0.00,CLR,OVC,0.00,WeatherDisplay:10.37,2013-09-17 04:56:00,
2013-09-17 00:57:00,42.0,40.4,30.33,NNE,27,2.7,3.5,94,0.00,CLR,OVC,0.00,WeatherDisplay:10.37,2013-09-17 04:57:00,
2013-09-17 01:00:00,41.9,40.3,30.33,NNE,27,2.9,3.5,94,0.00,CLR,OVC,0.00,WeatherDisplay:10.37,2013-09-17 05:00:00,
2013-09-17 01:02:00,41.9,40.3,30.33,NNE,27,2.1,3.5,94,0.00,CLR,OVC,0.00,WeatherDisplay:10.37,2013-09-17 05:02:00,
2013-09-17 01:05:00,42.2,40.9,30.33,NNE,27,2.3,3.5,95,0.00,CLR,OVC,0.00,WeatherDisplay:10.37,2013-09-17 05:05:00,
2013-09-17 01:06:00,42.2,40.9,30.33,NNE,27,2.0,3.5,95,0.00,CLR,OVC,0.00,WeatherDisplay:10.37,2013-09-17 05:06:00,
2013-09-17 01:07:00,42.3,41.0,30.33,NNE,27,1.8,3.5,95,0.00,CLR,OVC,0.00,WeatherDisplay:10.37,2013-09-17 05:07:00,
2013-09-17 01:08:00,42.4,41.1,30.33,NNE,27,1.5,3.5,95,0.00,CLR,OVC,0.00,WeatherDisplay:10.37,2013-09-17 05:08:00,
2013-09-17 01:10:00,42.5,41.2,30.33,NNE,27,0.1,1.2,95,0.00,CLR,OVC,0.00,WeatherDisplay:10.37,2013-09-17 05:10:00,
2013-09-17 01:12:00,42.5,41.2,30.33,NNE,27,0.6,1.2,95,0.00,CLR,OVC,0.00,WeatherDisplay:10.37,2013-09-17 05:12:00,
2013-09-17 01:13:00,42.5,40.9,30.33,NNE,27,0.3,1.2,94,0.00,CLR,OVC,0.00,WeatherDisplay:10.37,2013-09-17 05:13:00,
2013-09-17 01:15:00,42.6,41.0,30.33,NNE,27,1.7,2.3,94,0.00,CLR,OVC,0.00,WeatherDisplay:10.37,2013-09-17 05:15:00,
2013-09-17 01:17:00,42.6,41.3,30.33,NNE,27,1.2,3.5,95,0.00,CLR,OVC,0.00,WeatherDisplay:10.37,2013-09-17 05:17:00,
2013-09-17 01:18:00,42.6,41.3,30.34,NNE,27,1.2,2.3,95,0.00,CLR,OVC,0.00,WeatherDisplay:10.37,2013-09-17 05:18:00,
2013-09-17 01:19:00,42.6,41.3,30.33,NNE,27,1.1,2.3,95,0.00,CLR,OVC,0.00,WeatherDisplay:10.37,2013-09-17 05:19:00,
2013-09-17 01:21:00,42.7,41.1,30.33,NNE,27,1.6,2.3,94,0.00,CLR,OVC,0.00,WeatherDisplay:10.37,2013-09-17 05:21:00,
2013-09-17 01:22:00,42.7,41.1,30.33,NNE,27,1.6,3.5,94,0.00,CLR,OVC,0.00,WeatherDisplay:10.37,2013-09-17 05:22:00,
2013-09-17 01:23:00,42.7,41.1,30.33,NNE,27,1.8,3.5,94,0.00,CLR,OVC,0.00,WeatherDisplay:10.37,2013-09-17 05:23:00,
2013-09-17 01:24:00,42.7,41.1,30.33,NNE,27,2.4,3.5,94,0.00,CLR,OVC,0.00,WeatherDisplay:10.37,2013-09-17 05:24:00,
2013-09-17 01:26:00,42.8,41.2,30.33,NNE,27,1.9,3.5,94,0.00,CLR,OVC,0.00,WeatherDisplay:10.37,2013-09-17 05:26:00,
2013-09-17 01:27:00,42.8,41.2,30.33,NNE,27,2.7,3.5,94,0.00,CLR,OVC,0.00,WeatherDisplay:10.37,2013-09-17 05:27:00,
2013-09-17 01:28:00,42.8,41.2,30.33,NNE,27,2.7,3.5,94,0.00,CLR,OVC,0.00,WeatherDisplay:10.37,2013-09-17 05:28:00,
2013-09-17 01:29:00,42.8,41.2,30.34,NNE,27,1.8,3.5,94,0.00,CLR,OVC,0.00,WeatherDisplay:10.37,2013-09-17 05:29:00,
2013-09-17 01:31:00,42.9,41.3,30.33,NNE,27,2.0,3.5,94,0.00,CLR,OVC,0.00,WeatherDisplay:10.37,2013-09-17 05:31:00,
2013-09-17 01:32:00,42.9,41.3,30.34,NNE,27,1.5,2.3,94,0.00,CLR,OVC,0.00,WeatherDisplay:10.37,2013-09-17 05:32:00,
2013-09-17 01:33:00,42.9,41.3,30.34,NNE,27,1.5,2.3,94,0.00,CLR,OVC,0.00,WeatherDisplay:10.37,2013-09-17 05:33:00,
2013-09-17 01:34:00,42.9,41.3,30.34,NNE,27,1.2,2.3,94,0.00,CLR,OVC,0.00,WeatherDisplay:10.37,2013-09-17 05:34:00,
2013-09-17 01:36:00,42.9,41.3,30.34,NNE,27,1.5,2.3,94,0.00,CLR,OVC,0.00,WeatherDisplay:10.37,2013-09-17 05:36:00,
2013-09-17 01:38:00,42.9,41.3,30.34,NNE,27,1.4,2.3,94,0.00,CLR,OVC,0.00,WeatherDisplay:10.37,2013-09-17 05:38:00,
2013-09-17 01:39:00,42.9,41.3,30.34,NNE,27,1.3,2.3,94,0.00,CLR,OVC,0.00,WeatherDisplay:10.37,2013-09-17 05:39:00,
2013-09-17 01:40:00,42.9,41.3,30.34,NNE,27,1.5,2.3,94,0.00,CLR,OVC,0.00,WeatherDisplay:10.37,2013-09-17 05:40:00,
2013-09-17 01:41:00,42.9,41.3,30.34,NNE,27,1.5,2.3,94,0.00,CLR,OVC,0.00,WeatherDisplay:10.37,2013-09-17 05:41:00,
2013-09-17 01:43:00,42.9,41.3,30.34,NNE,27,2.1,3.5,94,0.00,CLR,OVC,0.00,WeatherDisplay:10.37,2013-09-17 05:43:00,
2013-09-17 01:44:00,42.9,41.3,30.34,NNE,27,2.2,3.5,94,0.00,CLR,OVC,0.00,WeatherDisplay:10.37,2013-09-17 05:44:00,
2013-09-17 01:45:00,42.9,41.3,30.34,NNE,27,2.2,3.5,94,0.00,CLR,OVC,0.00,WeatherDisplay:10.37,2013-09-17 05:45:00,
2013-09-17 01:46:00,42.9,41.0,30.34,NNE,27,2.3,3.5,93,0.00,CLR,OVC,0.00,WeatherDisplay:10.37,2013-09-17 05:46:00,
2013-09-17 01:48:00,42.9,41.0,30.34,NNE,27,2.3,3.5,93,0.00,CLR,OVC,0.00,WeatherDisplay:10.37,2013-09-17 05:48:00,
2013-09-17 01:49:00,42.9,41.3,30.34,NNE,27,2.6,3.5,94,0.00,CLR,OVC,0.00,WeatherDisplay:10.37,2013-09-17 05:49:00,
2013-09-17 01:50:00,42.9,41.0,30.34,NNE,27,2.9,3.5,93,0.00,CLR,OVC,0.00,WeatherDisplay:10.37,2013-09-17 05:50:00,
2013-09-17 01:51:00,42.9,41.0,30.34,NNE,27,3.3,3.5,93,0.00,CLR,OVC,0.00,WeatherDisplay:10.37,2013-09-17 05:51:00,
2013-09-17 01:53:00,42.9,41.3,30.34,NNE,27,3.4,4.0,94,0.00,CLR,OVC,0.00,WeatherDisplay:10.37,2013-09-17 05:53:00,
2013-09-17 01:55:00,42.8,40.9,30.34,NNE,27,3.1,3.5,93,0.00,CLR,OVC,0.00,WeatherDisplay:10.37,2013-09-17 05:55:00,
2013-09-17 01:56:00,42.8,40.9,30.34,NNE,27,2.2,3.5,93,0.00,CLR,OVC,0.00,WeatherDisplay:10.37,2013-09-17 05:56:00,
2013-09-17 01:58:00,42.8,40.9,30.34,NNE,27,0.6,3.0,93,0.00,CLR,OVC,0.00,WeatherDisplay:10.37,2013-09-17 05:58:00,
2013-09-17 01:59:00,42.7,40.8,30.34,NNE,27,1.5,2.3,93,0.00,CLR,OVC,0.00,WeatherDisplay:10.37,2013-09-17 05:59:00,
2013-09-17 02:00:00,42.7,40.8,30.34,NNE,27,2.2,3.5,93,0.00,CLR,OVC,0.00,WeatherDisplay:10.37,2013-09-17 06:00:00,
2013-09-17 02:01:00,42.6,40.7,30.34,NNE,27,1.0,2.3,93,0.00,CLR,OVC,0.00,WeatherDisplay:10.37,2013-09-17 06:01:00,
2013-09-17 02:02:00,42.5,40.6,30.34,NNE,27,0.4,2.3,93,0.00,CLR,OVC,0.00,WeatherDisplay:10.37,2013-09-17 06:02:00,
2013-09-17 02:03:00,42.4,40.5,30.34,NNE,27,0.0,0.0,93,0.00,CLR,OVC,0.00,WeatherDisplay:10.37,2013-09-17 06:03:00,
2013-09-17 02:04:00,42.4,40.5,30.34,NNE,27,0.0,0.0,93,0.00,CLR,OVC,0.00,WeatherDisplay:10.37,2013-09-17 06:04:00,
2013-09-17 02:05:00,42.4,40.5,30.34,NNE,27,0.1,1.2,93,0.00,CLR,OVC,0.00,WeatherDisplay:10.37,2013-09-17 06:05:00,
2013-09-17 02:06:00,42.2,40.3,30.34,NNE,27,2.2,3.5,93,0.00,CLR,OVC,0.00,WeatherDisplay:10.37,2013-09-17 06:06:00,
2013-09-17 02:07:00,42.2,40.3,30.34,NNE,27,1.9,3.5,93,0.00,CLR,OVC,0.00,WeatherDisplay:10.37,2013-09-17 06:07:00,
2013-09-17 02:09:00,42.1,40.2,30.34,NNE,27,1.4,3.5,93,0.00,CLR,OVC,0.00,WeatherDisplay:10.37,2013-09-17 06:09:00,
2013-09-17 02:10:00,42.1,40.2,30.34,NNE,27,0.1,3.5,93,0.00,CLR,OVC,0.00,WeatherDisplay:10.37,2013-09-17 06:10:00,
2013-09-17 02:12:00,41.9,40.0,30.34,NNE,27,0.0,1.2,93,0.00,CLR,OVC,0.00,WeatherDisplay:10.37,2013-09-17 06:12:00,
2013-09-17 02:13:00,41.9,40.0,30.34,NNE,27,1.0,3.0,93,0.00,CLR,OVC,0.00,WeatherDisplay:10.37,2013-09-17 06:13:00,
2013-09-17 02:14:00,41.8,39.9,30.34,NNE,27,2.0,3.5,93,0.00,CLR,OVC,0.00,WeatherDisplay:10.37,2013-09-17 06:14:00,
2013-09-17 02:15:00,41.8,39.9,30.34,NNE,27,2.0,3.5,93,0.00,CLR,OVC,0.00,WeatherDisplay:10.37,2013-09-17 06:15:00,
2013-09-17 02:17:00,41.7,39.8,30.34,NNE,27,3.4,4.0,93,0.00,CLR,OVC,0.00,WeatherDisplay:10.37,2013-09-17 06:17:00,
2013-09-17 02:18:00,41.6,39.7,30.34,NNE,27,3.7,3.7,93,0.00,CLR,OVC,0.00,WeatherDisplay:10.37,2013-09-17 06:18:00,
2013-09-17 02:19:00,41.6,39.7,30.33,NNE,27,3.2,3.5,93,0.00,CLR,OVC,0.00,WeatherDisplay:10.37,2013-09-17 06:19:00,
2013-09-17 02:20:00,41.6,39.7,30.34,NNE,27,2.9,4.0,93,0.00,CLR,OVC,0.00,WeatherDisplay:10.37,2013-09-17 06:20:00,
2013-09-17 02:22:00,41.6,40.0,30.34,NNE,27,1.0,3.5,94,0.00,CLR,OVC,0.00,WeatherDisplay:10.37,2013-09-17 06:22:00,
2013-09-17 02:23:00,41.6,40.0,30.34,NNE,27,0.2,3.5,94,0.00,CLR,OVC,0.00,WeatherDisplay:10.37,2013-09-17 06:23:00,
2013-09-17 02:24:00,41.6,40.0,30.34,NNE,27,0.1,1.2,94,0.00,CLR,OVC,0.00,WeatherDisplay:10.37,2013-09-17 06:24:00,
2013-09-17 02:25:00,41.6,40.0,30.34,NNE,27,0.1,1.2,94,0.00,CLR,OVC,0.00,WeatherDisplay:10.37,2013-09-17 06:25:00,
2013-09-17 02:27:00,41.5,39.9,30.34,NNE,27,0.0,0.0,94,0.00,CLR,OVC,0.00,WeatherDisplay:10.37,2013-09-17 06:27:00,
2013-09-17 02:28:00,41.5,39.9,30.34,NNE,27,0.0,0.0,94,0.00,CLR,OVC,0.00,WeatherDisplay:10.37,2013-09-17 06:28:00,
2013-09-17 02:29:00,41.5,39.9,30.34,NNE,27,0.0,1.2,94,0.00,CLR,OVC,0.00,WeatherDisplay:10.37,2013-09-17 06:29:00,
2013-09-17 02:30:00,41.4,39.8,30.34,NNE,27,0.6,2.0,94,0.00,CLR,OVC,0.00,WeatherDisplay:10.37,2013-09-17 06:30:00,
2013-09-17 02:33:00,41.4,39.8,30.34,NNE,27,0.6,2.3,94,0.00,CLR,OVC,0.00,WeatherDisplay:10.37,2013-09-17 06:33:00,
2013-09-17 02:34:00,41.4,39.8,30.34,NNE,27,0.4,1.2,94,0.00,CLR,OVC,0.00,WeatherDisplay:10.37,2013-09-17 06:34:00,
2013-09-17 02:35:00,41.4,39.8,30.34,NNE,27,0.8,1.2,94,0.00,CLR,OVC,0.00,WeatherDisplay:10.37,2013-09-17 06:35:00,
2013-09-17 02:36:00,41.4,39.8,30.34,NNE,27,1.7,2.3,94,0.00,CLR,OVC,0.00,WeatherDisplay:10.37,2013-09-17 06:36:00,
2013-09-17 02:38:00,41.5,39.9,30.34,NNE,27,2.5,3.5,94,0.00,CLR,OVC,0.00,WeatherDisplay:10.37,2013-09-17 06:38:00,
2013-09-17 02:39:00,41.6,40.0,30.34,NNE,27,2.6,3.5,94,0.00,CLR,OVC,0.00,WeatherDisplay:10.37,2013-09-17 06:39:00,
2013-09-17 02:40:00,41.7,40.1,30.34,NNE,27,2.8,3.5,94,0.00,CLR,OVC,0.00,WeatherDisplay:10.37,2013-09-17 06:40:00,
2013-09-17 02:41:00,41.7,40.4,30.34,NNE,27,2.2,3.5,95,0.00,CLR,OVC,0.00,WeatherDisplay:10.37,2013-09-17 06:41:00,
2013-09-17 02:43:00,41.8,40.5,30.34,NNE,27,2.1,3.5,95,0.00,CLR,OVC,0.00,WeatherDisplay:10.37,2013-09-17 06:43:00,
2013-09-17 02:44:00,41.8,40.2,30.34,NNE,27,2.3,3.5,94,0.00,CLR,OVC,0.00,WeatherDisplay:10.37,2013-09-17 06:44:00,
2013-09-17 02:45:00,41.9,40.3,30.35,NNE,27,2.2,3.5,94,0.00,CLR,OVC,0.00,WeatherDisplay:10.37,2013-09-17 06:45:00,
2013-09-17 02:46:00,41.9,40.6,30.35,NNE,27,2.1,3.5,95,0.00,CLR,OVC,0.00,WeatherDisplay:10.37,2013-09-17 06:46:00,
2013-09-17 02:47:00,41.9,40.6,30.34,NNE,27,1.4,3.5,95,0.00,CLR,OVC,0.00,WeatherDisplay:10.37,2013-09-17 06:47:00,
2013-09-17 02:48:00,42.0,40.4,30.34,NNE,27,0.9,2.3,94,0.00,CLR,OVC,0.00,WeatherDisplay:10.37,2013-09-17 06:48:00,
2013-09-17 02:49:00,42.0,40.4,30.35,NNE,27,0.5,2.3,94,0.00,CLR,OVC,0.00,WeatherDisplay:10.37,2013-09-17 06:49:00,
2013-09-17 02:50:00,41.9,40.3,30.35,NNE,27,1.6,3.5,94,0.00,CLR,OVC,0.00,WeatherDisplay:10.37,2013-09-17 06:50:00,
2013-09-17 02:51:00,41.9,40.3,30.34,NNE,27,1.6,3.5,94,0.00,CLR,OVC,0.00,WeatherDisplay:10.37,2013-09-17 06:51:00,
2013-09-17 02:52:00,41.8,40.2,30.35,NNE,27,1.5,2.3,94,0.00,CLR,OVC,0.00,WeatherDisplay:10.37,2013-09-17 06:52:00,
2013-09-17 02:53:00,41.7,40.1,30.35,NNE,27,1.5,2.3,94,0.00,CLR,OVC,0.00,WeatherDisplay:10.37,2013-09-17 06:53:00,
2013-09-17 02:54:00,41.5,39.6,30.35,NNE,27,2.1,3.5,93,0.00,CLR,OVC,0.00,WeatherDisplay:10.37,2013-09-17 06:54:00,
2013-09-17 02:55:00,41.4,39.8,30.35,NNE,27,1.9,3.5,94,0.00,CLR,OVC,0.00,WeatherDisplay:10.37,2013-09-17 06:55:00,
2013-09-17 02:56:00,41.4,39.8,30.35,NNE,27,1.8,3.5,94,0.00,CLR,OVC,0.00,WeatherDisplay:10.37,2013-09-17 06:56:00,
2013-09-17 02:57:00,41.3,39.7,30.35,NNE,27,1.3,2.3,94,0.00,CLR,OVC,0.00,WeatherDisplay:10.37,2013-09-17 06:57:00,
2013-09-17 02:58:00,41.2,39.6,30.35,NNE,27,1.0,2.3,94,0.00,CLR,OVC,0.00,WeatherDisplay:10.37,2013-09-17 06:58:00,
2013-09-17 03:00:00,41.0,39.4,30.35,NNE,27,0.5,1.2,94,0.00,CLR,OVC,0.00,WeatherDisplay:10.37,2013-09-17 07:00:00,
2013-09-17 03:01:00,41.0,39.4,30.35,NNE,27,1.0,2.0,94,0.00,CLR,OVC,0.00,WeatherDisplay:10.37,2013-09-17 07:01:00,
2013-09-17 03:02:00,40.8,39.2,30.35,NNE,27,1.6,2.3,94,0.00,CLR,OVC,0.00,WeatherDisplay:10.37,2013-09-17 07:02:00,
2013-09-17 03:03:00,40.8,39.2,30.35,NNE,27,1.5,2.3,94,0.00,CLR,OVC,0.00,WeatherDisplay:10.37,2013-09-17 07:03:00,
2013-09-17 03:05:00,40.7,39.1,30.34,NNE,27,0.0,0.0,94,0.00,CLR,OVC,0.00,WeatherDisplay:10.37,2013-09-17 07:05:00,
2013-09-17 03:06:00,40.6,39.0,30.35,NNE,27,0.0,0.0,94,0.00,CLR,OVC,0.00,WeatherDisplay:10.37,2013-09-17 07:06:00,
2013-09-17 03:08:00,40.5,38.9,30.35,NNE,27,1.1,2.3,94,0.00,CLR,OVC,0.00,WeatherDisplay:10.37,2013-09-17 07:08:00,
2013-09-17 03:11:00,40.4,38.8,30.35,NNE,27,2.0,3.5,94,0.00,CLR,OVC,0.00,WeatherDisplay:10.37,2013-09-17 07:11:00,
2013-09-17 03:13:00,40.3,38.7,30.35,NNE,27,1.6,3.5,94,0.00,CLR,OVC,0.00,WeatherDisplay:10.37,2013-09-17 07:13:00,
2013-09-17 03:14:00,40.2,38.6,30.35,NNE,27,0.2,2.3,94,0.00,CLR,OVC,0.00,WeatherDisplay:10.37,2013-09-17 07:14:00,
2013-09-17 03:16:00,40.1,38.5,30.35,NNE,27,0.9,3.5,94,0.00,CLR,OVC,0.00,WeatherDisplay:10.37,2013-09-17 07:16:00,
2013-09-17 03:17:00,40.1,38.5,30.35,NNE,27,0.1,3.5,94,0.00,CLR,OVC,0.00,WeatherDisplay:10.37,2013-09-17 07:17:00,
2013-09-17 03:18:00,40.1,38.5,30.35,NNE,27,0.8,2.0,94,0.00,CLR,OVC,0.00,WeatherDisplay:10.37,2013-09-17 07:18:00,
2013-09-17 03:19:00,40.1,38.5,30.35,NNE,27,1.9,3.5,94,0.00,CLR,OVC,0.00,WeatherDisplay:10.37,2013-09-17 07:19:00,
2013-09-17 03:21:00,40.0,38.7,30.35,NNE,27,1.0,2.3,95,0.00,CLR,OVC,0.00,WeatherDisplay:10.37,2013-09-17 07:21:00,
2013-09-17 03:22:00,40.0,38.4,30.35,NNE,27,1.1,2.3,94,0.00,CLR,OVC,0.00,WeatherDisplay:10.37,2013-09-17 07:22:00,
2013-09-17 03:23:00,40.0,38.7,30.35,NNE,27,1.2,2.3,95,0.00,CLR,OVC,0.00,WeatherDisplay:10.37,2013-09-17 07:23:00,
2013-09-17 03:24:00,40.0,38.7,30.35,NNE,27,1.3,2.3,95,0.00,CLR,OVC,0.00,WeatherDisplay:10.37,2013-09-17 07:24:00,
2013-09-17 03:25:00,39.9,38.6,30.35,NNE,27,1.3,2.3,95,0.00,CLR,OVC,0.00,WeatherDisplay:10.37,2013-09-17 07:25:00,
2013-09-17 03:26:00,40.0,38.7,30.35,NNE,27,1.1,2.3,95,0.00,CLR,OVC,0.00,WeatherDisplay:10.37,2013-09-17 07:26:00,
2013-09-17 03:27:00,40.0,38.7,30.35,NNE,27,0.6,2.3,95,0.00,CLR,OVC,0.00,WeatherDisplay:10.37,2013-09-17 07:27:00,
2013-09-17 03:28:00,40.0,38.7,30.35,NNE,27,0.1,1.2,95,0.00,CLR,OVC,0.00,WeatherDisplay:10.37,2013-09-17 07:28:00,
2013-09-17 03:29:00,40.0,38.7,30.35,NNE,27,0.1,1.2,95,0.00,CLR,OVC,0.00,WeatherDisplay:10.37,2013-09-17 07:29:00,
2013-09-17 03:31:00,39.9,38.6,30.35,NNE,27,1.3,2.3,95,0.00,CLR,OVC,0.00,WeatherDisplay:10.37,2013-09-17 07:31:00,
2013-09-17 03:33:00,39.9,38.6,30.35,NNE,27,0.9,2.3,95,0.00,CLR,OVC,0.00,WeatherDisplay:10.37,2013-09-17 07:33:00,
2013-09-17 03:34:00,39.9,38.6,30.35,NNE,27,1.0,2.0,95,0.00,CLR,OVC,0.00,WeatherDisplay:10.37,2013-09-17 07:34:00,
2013-09-17 03:36:00,39.9,38.6,30.35,NNE,27,1.0,1.2,95,0.00,CLR,OVC,0.00,WeatherDisplay:10.37,2013-09-17 07:36:00,
2013-09-17 03:38:00,39.8,38.5,30.35,NNE,27,2.0,3.5,95,0.00,CLR,OVC,0.00,WeatherDisplay:10.37,2013-09-17 07:38:00,
2013-09-17 03:39:00,39.8,38.5,30.35,NNE,27,2.0,3.5,95,0.00,CLR,OVC,0.00,WeatherDisplay:10.37,2013-09-17 07:39:00,
2013-09-17 03:41:00,39.8,38.5,30.35,NNE,27,1.9,3.5,95,0.00,CLR,OVC,0.00,WeatherDisplay:10.37,2013-09-17 07:41:00,
2013-09-17 03:43:00,39.7,38.7,30.35,NNE,27,1.0,2.3,96,0.00,CLR,OVC,0.00,WeatherDisplay:10.37,2013-09-17 07:43:00,
2013-09-17 03:44:00,39.8,38.8,30.35,NNE,27,0.4,1.2,96,0.00,CLR,OVC,0.00,WeatherDisplay:10.37,2013-09-17 07:44:00,
2013-09-17 03:46:00,39.8,38.8,30.35,NNE,27,1.0,1.2,96,0.00,CLR,OVC,0.00,WeatherDisplay:10.37,2013-09-17 07:46:00,
2013-09-17 03:47:00,39.8,38.8,30.35,NNE,27,0.7,2.3,96,0.00,CLR,OVC,0.00,WeatherDisplay:10.37,2013-09-17 07:47:00,
2013-09-17 03:48:00,39.8,38.8,30.35,NNE,27,0.0,1.2,96,0.00,CLR,OVC,0.00,WeatherDisplay:10.37,2013-09-17 07:48:00,
2013-09-17 03:49:00,39.8,38.8,30.35,NNE,27,0.0,0.0,96,0.00,CLR,OVC,0.00,WeatherDisplay:10.37,2013-09-17 07:49:00,
2013-09-17 03:52:00,39.8,38.8,30.35,NNE,27,0.0,1.2,96,0.00,CLR,OVC,0.00,WeatherDisplay:10.37,2013-09-17 07:52:00,
2013-09-17 03:53:00,39.9,38.9,30.35,NNE,27,0.0,0.0,96,0.00,CLR,OVC,0.00,WeatherDisplay:10.37,2013-09-17 07:53:00,
2013-09-17 03:54:00,39.9,38.9,30.35,NNE,27,0.0,0.0,96,0.00,CLR,OVC,0.00,WeatherDisplay:10.37,2013-09-17 07:54:00,
2013-09-17 03:55:00,39.9,38.9,30.35,NNE,27,0.0,0.0,96,0.00,CLR,OVC,0.00,WeatherDisplay:10.37,2013-09-17 07:55:00,
2013-09-17 03:57:00,39.9,38.9,30.36,NNE,27,0.0,0.0,96,0.00,CLR,OVC,0.00,WeatherDisplay:10.37,2013-09-17 07:57:00,
2013-09-17 03:59:00,39.8,38.8,30.36,NNE,27,0.0,0.0,96,0.00,CLR,OVC,0.00,WeatherDisplay:10.37,2013-09-17 07:59:00,
2013-09-17 04:00:00,39.8,38.8,30.35,NNE,27,0.0,0.0,96,0.00,CLR,OVC,0.00,WeatherDisplay:10.37,2013-09-17 08:00:00,
2013-09-17 04:02:00,39.8,38.8,30.36,NNE,27,0.0,0.0,96,0.00,CLR,OVC,0.00,WeatherDisplay:10.37,2013-09-17 08:02:00,
2013-09-17 04:04:00,39.7,38.7,30.36,NNE,27,0.0,0.0,96,0.00,CLR,OVC,0.00,WeatherDisplay:10.37,2013-09-17 08:04:00,
2013-09-17 04:05:00,39.7,38.7,30.36,NNE,27,0.0,0.0,96,0.00,CLR,OVC,0.00,WeatherDisplay:10.37,2013-09-17 08:05:00,
2013-09-17 04:06:00,39.6,38.6,30.36,NNE,27,0.0,0.0,96,0.00,CLR,OVC,0.00,WeatherDisplay:10.37,2013-09-17 08:06:00,
2013-09-17 04:07:00,39.6,38.6,30.36,NNE,27,0.0,0.0,96,0.00,CLR,OVC,0.00,WeatherDisplay:10.37,2013-09-17 08:07:00,
2013-09-17 04:08:00,39.6,38.6,30.36,NNE,27,0.0,0.0,96,0.00,CLR,OVC,0.00,WeatherDisplay:10.37,2013-09-17 08:08:00,
2013-09-17 04:09:00,39.6,38.6,30.36,NNE,27,0.0,0.0,96,0.00,CLR,OVC,0.00,WeatherDisplay:10.37,2013-09-17 08:09:00,
2013-09-17 04:11:00,39.5,38.5,30.36,NNE,27,0.0,0.0,96,0.00,CLR,OVC,0.00,WeatherDisplay:10.37,2013-09-17 08:11:00,
2013-09-17 04:13:00,39.5,38.7,30.36,NNE,27,0.5,1.0,97,0.00,CLR,OVC,0.00,WeatherDisplay:10.37,2013-09-17 08:13:00,
2013-09-17 04:15:00,39.4,38.4,30.36,NNE,27,1.8,2.3,96,0.00,CLR,OVC,0.00,WeatherDisplay:10.37,2013-09-17 08:15:00,
2013-09-17 04:16:00,39.4,38.4,30.36,NNE,27,1.8,2.3,96,0.00,CLR,OVC,0.00,WeatherDisplay:10.37,2013-09-17 08:16:00,
2013-09-17 04:18:00,39.4,38.6,30.36,NNE,27,1.2,2.3,97,0.00,CLR,OVC,0.00,WeatherDisplay:10.37,2013-09-17 08:18:00,
2013-09-17 04:20:00,39.4,38.6,30.36,NNE,27,0.0,0.0,97,0.00,CLR,OVC,0.00,WeatherDisplay:10.37,2013-09-17 08:20:00,
2013-09-17 04:21:00,39.4,38.6,30.36,NNE,27,0.0,0.0,97,0.00,CLR,OVC,0.00,WeatherDisplay:10.37,2013-09-17 08:21:00,
2013-09-17 04:23:00,39.4,38.6,30.36,NNE,27,0.0,0.0,97,0.00,CLR,OVC,0.00,WeatherDisplay:10.37,2013-09-17 08:23:00,
2013-09-17 04:25:00,39.4,38.6,30.36,NNE,27,0.0,0.0,97,0.00,CLR,OVC,0.00,WeatherDisplay:10.37,2013-09-17 08:25:00,
2013-09-17 04:27:00,39.4,38.6,30.36,NNE,27,0.0,0.0,97,0.00,CLR,OVC,0.00,WeatherDisplay:10.37,2013-09-17 08:27:00,
2013-09-17 04:28:00,39.3,38.5,30.36,NNE,27,0.0,0.0,97,0.00,CLR,OVC,0.00,WeatherDisplay:10.37,2013-09-17 08:28:00,
2013-09-17 04:30:00,39.3,38.5,30.36,NNE,27,0.0,0.0,97,0.00,CLR,OVC,0.00,WeatherDisplay:10.37,2013-09-17 08:30:00,
2013-09-17 04:32:00,39.3,38.5,30.36,NNE,27,0.0,0.0,97,0.00,CLR,OVC,0.00,WeatherDisplay:10.37,2013-09-17 08:32:00,
2013-09-17 04:34:00,39.3,38.5,30.36,NNE,27,1.1,2.0,97,0.00,CLR,OVC,0.00,WeatherDisplay:10.37,2013-09-17 08:34:00,
2013-09-17 04:35:00,39.3,38.5,30.36,NNE,27,1.4,2.3,97,0.00,CLR,OVC,0.00,WeatherDisplay:10.37,2013-09-17 08:35:00,
2013-09-17 04:37:00,39.2,38.4,30.36,NNE,27,1.5,2.3,97,0.00,CLR,OVC,0.00,WeatherDisplay:10.37,2013-09-17 08:37:00,
2013-09-17 04:38:00,39.2,38.4,30.36,NNE,27,1.5,2.3,97,0.00,CLR,OVC,0.00,WeatherDisplay:10.37,2013-09-17 08:38:00,
2013-09-17 04:39:00,39.2,38.4,30.36,NNE,27,1.1,2.3,97,0.00,CLR,OVC,0.00,WeatherDisplay:10.37,2013-09-17 08:39:00,
2013-09-17 04:40:00,39.1,38.3,30.36,NNE,27,0.5,1.2,97,0.00,CLR,OVC,0.00,WeatherDisplay:10.37,2013-09-17 08:40:00,
2013-09-17 04:41:00,39.2,38.4,30.36,NNE,27,0.5,1.2,97,0.00,CLR,OVC,0.00,WeatherDisplay:10.37,2013-09-17 08:41:00,
2013-09-17 04:42:00,39.1,38.3,30.36,NNE,27,1.4,2.3,97,0.00,CLR,OVC,0.00,WeatherDisplay:10.37,2013-09-17 08:42:00,
2013-09-17 04:44:00,39.1,38.3,30.36,NNE,27,1.0,2.3,97,0.00,CLR,OVC,0.00,WeatherDisplay:10.37,2013-09-17 08:44:00,
2013-09-17 04:46:00,39.1,38.3,30.36,NNE,27,1.2,2.3,97,0.00,CLR,OVC,0.00,WeatherDisplay:10.37,2013-09-17 08:46:00,
2013-09-17 04:47:00,39.0,38.2,30.36,NNE,27,0.4,2.3,97,0.00,CLR,OVC,0.00,WeatherDisplay:10.37,2013-09-17 08:47:00,
2013-09-17 04:49:00,39.0,38.2,30.36,NNE,27,0.0,0.0,97,0.00,CLR,OVC,0.00,WeatherDisplay:10.37,2013-09-17 08:49:00,
2013-09-17 04:50:00,39.0,38.2,30.36,NNE,27,0.0,1.0,97,0.00,CLR,OVC,0.00,WeatherDisplay:10.37,2013-09-17 08:50:00,
2013-09-17 04:51:00,39.0,38.2,30.37,NNE,27,0.0,1.2,97,0.00,CLR,OVC,0.00,WeatherDisplay:10.37,2013-09-17 08:51:00,
2013-09-17 04:52:00,39.0,38.2,30.37,NNE,27,0.0,0.0,97,0.00,CLR,OVC,0.00,WeatherDisplay:10.37,2013-09-17 08:52:00,
2013-09-17 04:54:00,39.0,38.5,30.37,NNE,27,0.0,0.0,98,0.00,CLR,OVC,0.00,WeatherDisplay:10.37,2013-09-17 08:54:00,
2013-09-17 04:55:00,39.0,38.2,30.36,NNE,27,0.0,0.0,97,0.00,CLR,OVC,0.00,WeatherDisplay:10.37,2013-09-17 08:55:00,
2013-09-17 04:56:00,39.0,38.5,30.37,NNE,27,0.0,0.0,98,0.00,CLR,OVC,0.00,WeatherDisplay:10.37,2013-09-17 08:56:00,
2013-09-17 04:57:00,39.0,38.5,30.37,NNE,27,0.0,0.0,98,0.00,CLR,OVC,0.00,WeatherDisplay:10.37,2013-09-17 08:57:00,
2013-09-17 04:59:00,39.0,38.2,30.37,NNE,27,0.0,0.0,97,0.00,CLR,OVC,0.00,WeatherDisplay:10.37,2013-09-17 08:59:00,
2013-09-17 05:01:00,39.0,38.5,30.37,NNE,27,0.0,0.0,98,0.00,CLR,OVC,0.00,WeatherDisplay:10.37,2013-09-17 09:01:00,
2013-09-17 05:03:00,39.0,38.5,30.37,NNE,27,0.0,0.0,98,0.00,CLR,OVC,0.00,WeatherDisplay:10.37,2013-09-17 09:03:00,
2013-09-17 05:04:00,38.9,38.4,30.37,NNE,27,0.0,0.0,98,0.00,CLR,OVC,0.00,WeatherDisplay:10.37,2013-09-17 09:04:00,
2013-09-17 05:05:00,38.9,38.4,30.37,NNE,27,0.0,0.0,98,0.00,CLR,OVC,0.00,WeatherDisplay:10.37,2013-09-17 09:05:00,
2013-09-17 05:06:00,38.9,38.1,30.37,NNE,27,0.7,1.2,97,0.00,CLR,OVC,0.00,WeatherDisplay:10.37,2013-09-17 09:06:00,
2013-09-17 05:07:00,38.9,38.4,30.37,NNE,27,0.6,1.2,98,0.00,CLR,OVC,0.00,WeatherDisplay:10.37,2013-09-17 09:07:00,
2013-09-17 05:08:00,38.9,38.4,30.37,NNE,27,0.1,1.2,98,0.00,CLR,OVC,0.00,WeatherDisplay:10.37,2013-09-17 09:08:00,
2013-09-17 05:10:00,39.0,38.5,30.37,NNE,27,0.0,0.0,98,0.00,CLR,OVC,0.00,WeatherDisplay:10.37,2013-09-17 09:10:00,
2013-09-17 05:11:00,39.0,38.5,30.37,NNE,27,0.0,0.0,98,0.00,CLR,OVC,0.00,WeatherDisplay:10.37,2013-09-17 09:11:00,
2013-09-17 05:12:00,39.0,38.5,30.37,NNE,27,0.0,0.0,98,0.00,CLR,OVC,0.00,WeatherDisplay:10.37,2013-09-17 09:12:00,
2013-09-17 05:13:00,39.0,38.5,30.37,NNE,27,0.0,0.0,98,0.00,CLR,OVC,0.00,WeatherDisplay:10.37,2013-09-17 09:13:00,
2013-09-17 05:15:00,38.9,38.4,30.38,NNE,27,0.0,0.0,98,0.00,CLR,OVC,0.00,WeatherDisplay:10.37,2013-09-17 09:15:00,
2013-09-17 05:16:00,38.9,38.4,30.37,NNE,27,0.0,0.0,98,0.00,CLR,OVC,0.00,WeatherDisplay:10.37,2013-09-17 09:16:00,
2013-09-17 05:17:00,38.9,38.4,30.38,NNE,27,0.0,0.0,98,0.00,CLR,OVC,0.00,WeatherDisplay:10.37,2013-09-17 09:17:00,
2013-09-17 05:18:00,38.9,38.4,30.37,NNE,27,0.0,0.0,98,0.00,CLR,OVC,0.00,WeatherDisplay:10.37,2013-09-17 09:18:00,
2013-09-17 05:20:00,38.9,38.4,30.38,NNE,27,0.9,1.2,98,0.00,CLR,OVC,0.00,WeatherDisplay:10.37,2013-09-17 09:20:00,
2013-09-17 05:21:00,38.8,38.3,30.38,NNE,27,0.9,2.3,98,0.00,CLR,OVC,0.00,WeatherDisplay:10.37,2013-09-17 09:21:00,
2013-09-17 05:22:00,38.8,38.3,30.37,NNE,27,0.9,2.3,98,0.00,CLR,OVC,0.00,WeatherDisplay:10.37,2013-09-17 09:22:00,
2013-09-17 05:23:00,38.8,38.3,30.38,NNE,27,0.2,1.2,98,0.00,CLR,OVC,0.00,WeatherDisplay:10.37,2013-09-17 09:23:00,
2013-09-17 05:25:00,38.7,38.2,30.38,NNE,27,0.0,0.0,98,0.00,CLR,OVC,0.00,WeatherDisplay:10.37,2013-09-17 09:25:00,
2013-09-17 05:27:00,38.7,38.2,30.38,NNE,27,0.0,0.0,98,0.00,CLR,OVC,0.00,WeatherDisplay:10.37,2013-09-17 09:27:00,
2013-09-17 05:28:00,38.7,38.2,30.39,NNE,27,0.0,0.0,98,0.00,CLR,OVC,0.00,WeatherDisplay:10.37,2013-09-17 09:28:00,
2013-09-17 05:29:00,38.6,38.1,30.38,NNE,27,0.0,0.0,98,0.00,CLR,OVC,0.00,WeatherDisplay:10.37,2013-09-17 09:29:00,
2013-09-17 05:31:00,38.6,38.1,30.38,NNE,27,0.0,0.0,98,0.00,CLR,OVC,0.00,WeatherDisplay:10.37,2013-09-17 09:31:00,
2013-09-17 05:32:00,38.5,38.0,30.38,NNE,27,0.0,0.0,98,0.00,CLR,OVC,0.00,WeatherDisplay:10.37,2013-09-17 09:32:00,
2013-09-17 05:33:00,38.5,38.0,30.39,NNE,27,0.0,0.0,98,0.00,CLR,OVC,0.00,WeatherDisplay:10.37,2013-09-17 09:33:00,
2013-09-17 05:34:00,38.5,38.0,30.38,NNE,27,0.0,0.0,98,0.00,CLR,OVC,0.00,WeatherDisplay:10.37,2013-09-17 09:34:00,
2013-09-17 05:36:00,38.5,38.0,30.38,NNE,27,0.4,2.3,98,0.00,CLR,OVC,0.00,WeatherDisplay:10.37,2013-09-17 09:36:00,
2013-09-17 05:37:00,38.5,38.0,30.38,NNE,27,0.0,0.0,98,0.00,CLR,OVC,0.00,WeatherDisplay:10.37,2013-09-17 09:37:00,
2013-09-17 05:38:00,38.4,37.9,30.38,NNE,27,0.0,0.0,98,0.00,CLR,OVC,0.00,WeatherDisplay:10.37,2013-09-17 09:38:00,
2013-09-17 05:39:00,38.4,37.9,30.38,NNE,27,0.0,0.0,98,0.00,CLR,OVC,0.00,WeatherDisplay:10.37,2013-09-17 09:39:00,
2013-09-17 05:41:00,38.4,37.9,30.38,NNE,27,0.0,0.0,98,0.00,CLR,OVC,0.00,WeatherDisplay:10.37,2013-09-17 09:41:00,
2013-09-17 05:43:00,38.4,37.9,30.39,NNE,27,0.0,0.0,98,0.00,CLR,OVC,0.00,WeatherDisplay:10.37,2013-09-17 09:43:00,
2013-09-17 05:44:00,38.3,37.8,30.39,NNE,27,0.0,0.0,98,0.00,CLR,OVC,0.00,WeatherDisplay:10.37,2013-09-17 09:44:00,
2013-09-17 05:47:00,38.3,37.8,30.39,NNE,27,0.0,0.0,98,0.00,CLR,OVC,0.00,WeatherDisplay:10.37,2013-09-17 09:47:00,
2013-09-17 05:48:00,38.3,37.8,30.38,NNE,27,0.0,0.0,98,0.00,CLR,OVC,0.00,WeatherDisplay:10.37,2013-09-17 09:48:00,
2013-09-17 05:49:00,38.2,37.7,30.39,NNE,27,0.0,0.0,98,0.00,CLR,OVC,0.00,WeatherDisplay:10.37,2013-09-17 09:49:00,
2013-09-17 05:50:00,38.2,37.7,30.38,NNE,27,0.0,0.0,98,0.00,CLR,OVC,0.00,WeatherDisplay:10.37,2013-09-17 09:50:00,
2013-09-17 05:52:00,38.2,37.7,30.39,NNE,27,0.0,0.0,98,0.00,CLR,OVC,0.00,WeatherDisplay:10.37,2013-09-17 09:52:00,
2013-09-17 05:53:00,38.2,37.7,30.39,NNE,27,0.0,0.0,98,0.00,CLR,OVC,0.00,WeatherDisplay:10.37,2013-09-17 09:53:00,
2013-09-17 05:54:00,38.2,37.7,30.39,NNE,27,0.0,0.0,98,0.00,CLR,OVC,0.00,WeatherDisplay:10.37,2013-09-17 09:54:00,
2013-09-17 05:55:00,38.2,37.7,30.39,NNE,27,0.0,0.0,98,0.00,CLR,OVC,0.00,WeatherDisplay:10.37,2013-09-17 09:55:00,
2013-09-17 05:57:00,38.2,37.7,30.39,NNE,27,0.0,0.0,98,0.00,CLR,OVC,0.00,WeatherDisplay:10.37,2013-09-17 09:57:00,
2013-09-17 05:58:00,38.2,37.7,30.39,NNE,27,0.0,0.0,98,0.00,CLR,OVC,0.00,WeatherDisplay:10.37,2013-09-17 09:58:00,
2013-09-17 05:59:00,38.2,37.7,30.39,NNE,27,0.0,0.0,98,0.00,CLR,OVC,0.00,WeatherDisplay:10.37,2013-09-17 09:59:00,
2013-09-17 06:01:00,38.2,37.7,30.39,NNE,27,0.0,0.0,98,0.00,CLR,OVC,0.00,WeatherDisplay:10.37,2013-09-17 10:01:00,
2013-09-17 06:02:00,38.2,37.7,30.39,NNE,27,0.0,0.0,98,0.00,CLR,OVC,0.00,WeatherDisplay:10.37,2013-09-17 10:02:00,
2013-09-17 06:03:00,38.2,37.7,30.39,NNE,27,0.0,0.0,98,0.00,CLR,OVC,0.00,WeatherDisplay:10.37,2013-09-17 10:03:00,
2013-09-17 06:04:00,38.2,37.7,30.39,NNE,27,0.0,0.0,98,0.00,CLR,OVC,0.00,WeatherDisplay:10.37,2013-09-17 10:04:00,
2013-09-17 06:05:00,38.2,37.7,30.40,NNE,27,0.0,0.0,98,0.00,CLR,OVC,0.00,WeatherDisplay:10.37,2013-09-17 10:05:00,
2013-09-17 06:06:00,38.2,37.7,30.39,NNE,27,0.0,0.0,98,0.00,CLR,OVC,0.00,WeatherDisplay:10.37,2013-09-17 10:06:00,
2013-09-17 06:07:00,38.2,37.7,30.39,NNE,27,0.0,0.0,98,0.00,CLR,OVC,0.00,WeatherDisplay:10.37,2013-09-17 10:07:00,
2013-09-17 06:08:00,38.2,37.7,30.39,NNE,27,0.0,0.0,98,0.00,CLR,OVC,0.00,WeatherDisplay:10.37,2013-09-17 10:08:00,
2013-09-17 06:09:00,38.2,37.9,30.39,NNE,27,0.0,0.0,99,0.00,CLR,OVC,0.00,WeatherDisplay:10.37,2013-09-17 10:09:00,
2013-09-17 06:10:00,38.2,37.7,30.39,NNE,27,0.0,0.0,98,0.00,CLR,OVC,0.00,WeatherDisplay:10.37,2013-09-17 10:10:00,
2013-09-17 06:12:00,38.2,37.7,30.39,NNE,27,1.0,2.3,98,0.00,CLR,OVC,0.00,WeatherDisplay:10.37,2013-09-17 10:12:00,
2013-09-17 06:13:00,38.2,37.7,30.39,NNE,27,1.2,2.3,98,0.00,CLR,OVC,0.00,WeatherDisplay:10.37,2013-09-17 10:13:00,
2013-09-17 06:14:00,38.2,37.9,30.40,NNE,27,1.1,2.3,99,0.00,CLR,OVC,0.00,WeatherDisplay:10.37,2013-09-17 10:14:00,
2013-09-17 06:15:00,38.2,37.9,30.39,NNE,27,0.3,2.3,99,0.00,CLR,OVC,0.00,WeatherDisplay:10.37,2013-09-17 10:15:00,
2013-09-17 06:17:00,38.2,37.9,30.40,NNE,27,0.0,0.0,99,0.00,CLR,OVC,0.00,WeatherDisplay:10.37,2013-09-17 10:17:00,
2013-09-17 06:18:00,38.1,37.6,30.40,NNE,27,0.0,0.0,98,0.00,CLR,OVC,0.00,WeatherDisplay:10.37,2013-09-17 10:18:00,
2013-09-17 06:19:00,38.1,37.8,30.40,NNE,27,0.0,0.0,99,0.00,CLR,OVC,0.00,WeatherDisplay:10.37,2013-09-17 10:19:00,
2013-09-17 06:20:00,38.1,37.8,30.40,NNE,27,0.0,0.0,99,0.00,CLR,OVC,0.00,WeatherDisplay:10.37,2013-09-17 10:20:00,
2013-09-17 06:22:00,38.0,37.5,30.39,NNE,27,0.0,0.0,98,0.00,CLR,OVC,0.00,WeatherDisplay:10.37,2013-09-17 10:22:00,
2013-09-17 06:23:00,38.0,37.5,30.40,NNE,27,0.0,0.0,98,0.00,CLR,OVC,0.00,WeatherDisplay:10.37,2013-09-17 10:23:00,
2013-09-17 06:24:00,38.0,37.5,30.40,NNE,27,0.0,0.0,98,0.00,CLR,OVC,0.00,WeatherDisplay:10.37,2013-09-17 10:24:00,
2013-09-17 06:25:00,38.0,37.5,30.40,NNE,27,0.0,0.0,98,0.00,CLR,OVC,0.00,WeatherDisplay:10.37,2013-09-17 10:25:00,
2013-09-17 06:27:00,37.9,37.6,30.40,NNE,27,0.0,0.0,99,0.00,CLR,OVC,0.00,WeatherDisplay:10.37,2013-09-17 10:27:00,
2013-09-17 06:29:00,37.9,37.6,30.40,NNE,27,0.0,0.0,99,0.00,CLR,OVC,0.00,WeatherDisplay:10.37,2013-09-17 10:29:00,
2013-09-17 06:30:00,37.9,37.6,30.40,NNE,27,0.0,0.0,99,0.00,CLR,OVC,0.00,WeatherDisplay:10.37,2013-09-17 10:30:00,
2013-09-17 06:33:00,37.9,37.6,30.40,NNE,27,0.0,0.0,99,0.00,CLR,OVC,0.00,WeatherDisplay:10.37,2013-09-17 10:33:00,
2013-09-17 06:34:00,37.9,37.6,30.40,NNE,27,0.0,0.0,99,0.00,CLR,OVC,0.00,WeatherDisplay:10.37,2013-09-17 10:34:00,
2013-09-17 06:35:00,37.9,37.6,30.40,NNE,27,0.0,0.0,99,0.00,CLR,OVC,0.00,WeatherDisplay:10.37,2013-09-17 10:35:00,
2013-09-17 06:36:00,37.9,37.6,30.40,NNE,27,0.0,0.0,99,0.00,CLR,OVC,0.00,WeatherDisplay:10.37,2013-09-17 10:36:00,
2013-09-17 06:38:00,37.8,37.3,30.40,NNE,27,0.0,0.0,98,0.00,CLR,OVC,0.00,WeatherDisplay:10.37,2013-09-17 10:38:00,
2013-09-17 06:39:00,37.8,37.5,30.41,NNE,27,0.0,0.0,99,0.00,CLR,OVC,0.00,WeatherDisplay:10.37,2013-09-17 10:39:00,
2013-09-17 06:40:00,37.8,37.3,30.40,NNE,27,0.0,0.0,98,0.00,CLR,OVC,0.00,WeatherDisplay:10.37,2013-09-17 10:40:00,
2013-09-17 06:41:00,37.7,37.2,30.40,NNE,27,0.0,0.0,98,0.00,CLR,OVC,0.00,WeatherDisplay:10.37,2013-09-17 10:41:00,
2013-09-17 06:44:00,37.6,37.1,30.41,NNE,27,0.0,0.0,98,0.00,CLR,OVC,0.00,WeatherDisplay:10.37,2013-09-17 10:44:00,
2013-09-17 06:45:00,37.6,37.1,30.41,NNE,27,0.0,0.0,98,0.00,CLR,OVC,0.00,WeatherDisplay:10.37,2013-09-17 10:45:00,
2013-09-17 06:46:00,37.5,37.0,30.41,NNE,27,0.0,0.0,98,0.00,CLR,OVC,0.00,WeatherDisplay:10.37,2013-09-17 10:46:00,
2013-09-17 06:49:00,37.4,36.9,30.41,NNE,27,1.8,2.3,98,0.00,CLR,OVC,0.00,WeatherDisplay:10.37,2013-09-17 10:49:00,
2013-09-17 06:50:00,37.4,37.1,30.41,NNE,27,1.7,3.5,99,0.00,CLR,OVC,0.00,WeatherDisplay:10.37,2013-09-17 10:50:00,
2013-09-17 06:51:00,37.4,36.9,30.41,NNE,27,1.0,2.3,98,0.00,CLR,OVC,0.00,WeatherDisplay:10.37,2013-09-17 10:51:00,
2013-09-17 06:52:00,37.4,36.9,30.42,NNE,27,1.3,2.3,98,0.00,CLR,OVC,0.00,WeatherDisplay:10.37,2013-09-17 10:52:00,
2013-09-17 06:54:00,37.3,36.8,30.41,NNE,27,1.4,2.3,98,0.00,CLR,OVC,0.00,WeatherDisplay:10.37,2013-09-17 10:54:00,
2013-09-17 06:55:00,37.3,36.8,30.42,NNE,27,1.4,2.3,98,0.00,CLR,OVC,0.00,WeatherDisplay:10.37,2013-09-17 10:55:00,
2013-09-17 06:56:00,37.3,36.8,30.42,NNE,27,1.3,2.3,98,0.00,CLR,OVC,0.00,WeatherDisplay:10.37,2013-09-17 10:56:00,
2013-09-17 06:57:00,37.2,36.7,30.42,NNE,27,1.4,2.3,98,0.00,CLR,OVC,0.00,WeatherDisplay:10.37,2013-09-17 10:57:00,
2013-09-17 06:59:00,37.3,36.8,30.42,NNE,27,1.6,3.5,98,0.00,CLR,OVC,0.00,WeatherDisplay:10.37,2013-09-17 10:59:00,
2013-09-17 07:00:00,37.3,37.0,30.42,NNE,27,1.5,2.3,99,0.00,CLR,OVC,0.00,WeatherDisplay:10.37,2013-09-17 11:00:00,
2013-09-17 07:01:00,37.3,37.0,30.42,NNE,27,2.0,3.0,99,0.00,CLR,OVC,0.00,WeatherDisplay:10.37,2013-09-17 11:01:00,
2013-09-17 07:02:00,37.3,37.0,30.42,NNE,27,2.0,2.3,99,0.00,CLR,OVC,0.00,WeatherDisplay:10.37,2013-09-17 11:02:00,
2013-09-17 07:04:00,37.4,37.1,30.42,NNE,27,1.8,2.3,99,0.00,CLR,OVC,0.00,WeatherDisplay:10.37,2013-09-17 11:04:00,
2013-09-17 07:05:00,37.4,37.1,30.42,NNE,27,1.8,2.3,99,0.00,CLR,OVC,0.00,WeatherDisplay:10.37,2013-09-17 11:05:00,
2013-09-17 07:06:00,37.4,37.1,30.42,NNE,27,1.1,2.3,99,0.00,CLR,OVC,0.00,WeatherDisplay:10.37,2013-09-17 11:06:00,
2013-09-17 07:07:00,37.5,37.2,30.42,NNE,27,1.2,2.3,99,0.00,CLR,OVC,0.00,WeatherDisplay:10.37,2013-09-17 11:07:00,
2013-09-17 07:10:00,37.5,37.2,30.42,NNE,27,0.0,0.0,99,0.00,CLR,OVC,0.00,WeatherDisplay:10.37,2013-09-17 11:10:00,
2013-09-17 07:11:00,37.5,37.2,30.42,NNE,27,0.0,0.0,99,0.00,CLR,OVC,0.00,WeatherDisplay:10.37,2013-09-17 11:11:00,
2013-09-17 07:12:00,37.6,37.3,30.42,NNE,27,0.0,0.0,99,0.00,CLR,OVC,0.00,WeatherDisplay:10.37,2013-09-17 11:12:00,
2013-09-17 07:15:00,37.6,37.3,30.42,NNE,27,0.0,0.0,99,0.00,CLR,OVC,0.00,WeatherDisplay:10.37,2013-09-17 11:15:00,
2013-09-17 07:17:00,37.6,37.3,30.42,NNE,27,1.5,2.3,99,0.00,CLR,OVC,0.00,WeatherDisplay:10.37,2013-09-17 11:17:00,
2013-09-17 07:18:00,37.7,37.4,30.42,NNE,27,0.9,2.3,99,0.00,CLR,OVC,0.00,WeatherDisplay:10.37,2013-09-17 11:18:00,
2013-09-17 07:20:00,37.6,37.3,30.42,NNE,27,0.0,0.0,99,0.00,CLR,OVC,0.00,WeatherDisplay:10.37,2013-09-17 11:20:00,
2013-09-17 07:23:00,37.6,37.3,30.42,NNE,27,0.0,0.0,99,0.00,CLR,OVC,0.00,WeatherDisplay:10.37,2013-09-17 11:23:00,
2013-09-17 07:26:00,37.6,37.3,30.42,NNE,27,0.0,0.0,99,0.00,CLR,OVC,0.00,WeatherDisplay:10.37,2013-09-17 11:26:00,
2013-09-17 07:28:00,37.5,37.2,30.42,NNE,27,0.0,0.0,99,0.00,CLR,OVC,0.00,WeatherDisplay:10.37,2013-09-17 11:28:00,
2013-09-17 07:31:00,37.5,37.2,30.42,NNE,27,0.0,0.0,99,0.00,CLR,OVC,0.00,WeatherDisplay:10.37,2013-09-17 11:31:00,
2013-09-17 07:33:00,37.5,37.2,30.42,NNE,27,0.0,0.0,99,0.00,CLR,OVC,0.00,WeatherDisplay:10.37,2013-09-17 11:33:00,
2013-09-17 07:34:00,37.5,37.2,30.42,NNE,27,0.0,0.0,99,0.00,CLR,OVC,0.00,WeatherDisplay:10.37,2013-09-17 11:34:00,
2013-09-17 07:36:00,37.6,37.3,30.42,NNE,27,0.0,0.0,99,0.00,CLR,OVC,0.00,WeatherDisplay:10.37,2013-09-17 11:36:00,
2013-09-17 07:38:00,37.7,37.4,30.42,NNE,27,0.0,0.0,99,0.00,CLR,OVC,0.00,WeatherDisplay:10.37,2013-09-17 11:38:00,
2013-09-17 07:39:00,37.7,37.4,30.42,NNE,27,0.0,0.0,99,0.00,CLR,OVC,0.00,WeatherDisplay:10.37,2013-09-17 11:39:00,
2013-09-17 07:41:00,37.7,37.4,30.42,NNE,27,0.0,0.0,99,0.00,CLR,OVC,0.00,WeatherDisplay:10.37,2013-09-17 11:41:00,
2013-09-17 07:44:00,37.8,37.5,30.42,NNE,27,0.0,0.0,99,0.00,CLR,OVC,0.00,WeatherDisplay:10.37,2013-09-17 11:44:00,
2013-09-17 07:46:00,37.9,37.9,30.42,NNE,27,0.0,0.0,100,0.00,CLR,OVC,0.00,WeatherDisplay:10.37,2013-09-17 11:46:00,
2013-09-17 07:47:00,37.9,37.6,30.42,NNE,27,0.0,0.0,99,0.00,,OVC,0.00,WeatherDisplay:10.37,2013-09-17 11:47:00,
2013-09-17 07:49:00,38.0,37.7,30.42,NNE,27,0.0,0.0,99,0.00,CLR,OVC,0.00,WeatherDisplay:10.37,2013-09-17 11:49:00,
2013-09-17 07:50:00,38.2,38.2,30.42,NNE,27,0.0,0.0,100,0.00,CLR,OVC,0.00,WeatherDisplay:10.37,2013-09-17 11:50:00,
2013-09-17 07:51:00,38.3,38.3,30.42,NNE,27,0.0,0.0,100,0.00,,OVC,0.00,WeatherDisplay:10.37,2013-09-17 11:51:00,
2013-09-17 07:52:00,38.3,38.3,30.42,NNE,27,0.0,0.0,100,0.00,,OVC,0.00,WeatherDisplay:10.37,2013-09-17 11:52:00,
2013-09-17 07:54:00,38.5,38.5,30.42,NNE,27,0.0,0.0,100,0.00,CLR,OVC,0.00,WeatherDisplay:10.37,2013-09-17 11:54:00,
2013-09-17 07:55:00,38.6,38.3,30.42,NNE,27,0.0,0.0,99,0.00,,OVC,0.00,WeatherDisplay:10.37,2013-09-17 11:55:00,
2013-09-17 07:57:00,38.8,38.8,30.42,NNE,27,0.0,0.0,100,0.00,,OVC,0.00,WeatherDisplay:10.37,2013-09-17 11:57:00,
2013-09-17 07:59:00,39.1,39.1,30.42,NNE,27,1.2,2.3,100,0.00,,OVC,0.00,WeatherDisplay:10.37,2013-09-17 11:59:00,
2013-09-17 08:00:00,39.3,39.3,30.43,NNE,27,0.7,2.3,100,0.00,,OVC,0.00,WeatherDisplay:10.37,2013-09-17 12:00:00,
2013-09-17 08:02:00,39.5,39.5,30.42,NNE,27,0.3,1.2,100,0.00,,OVC,0.00,WeatherDisplay:10.37,2013-09-17 12:02:00,
2013-09-17 08:04:00,39.7,39.7,30.42,NNE,27,0.4,1.2,100,0.00,,OVC,0.00,WeatherDisplay:10.37,2013-09-17 12:04:00,
2013-09-17 08:05:00,39.9,39.9,30.43,NNE,27,0.1,1.2,100,0.00,,OVC,0.00,WeatherDisplay:10.37,2013-09-17 12:05:00,
2013-09-17 08:07:00,40.0,40.0,30.43,NNE,27,0.0,0.0,100,0.00,,OVC,0.00,WeatherDisplay:10.37,2013-09-17 12:07:00,
2013-09-17 08:08:00,40.2,40.2,30.42,NNE,27,0.0,0.0,100,0.00,,OVC,0.00,WeatherDisplay:10.37,2013-09-17 12:08:00,
2013-09-17 08:09:00,40.4,40.4,30.42,NNE,27,0.0,0.0,100,0.00,,OVC,0.00,WeatherDisplay:10.37,2013-09-17 12:09:00,
2013-09-17 08:11:00,40.6,40.6,30.42,NNE,27,0.0,0.0,100,0.00,,OVC,0.00,WeatherDisplay:10.37,2013-09-17 12:11:00,
2013-09-17 08:12:00,40.8,40.8,30.42,NNE,27,0.0,0.0,100,0.00,,OVC,0.00,WeatherDisplay:10.37,2013-09-17 12:12:00,
2013-09-17 08:13:00,40.9,40.9,30.43,NNE,27,0.0,0.0,100,0.00,,OVC,0.00,WeatherDisplay:10.37,2013-09-17 12:13:00,
2013-09-17 08:14:00,41.0,41.0,30.43,NNE,27,0.0,0.0,100,0.00,,OVC,0.00,WeatherDisplay:10.37,2013-09-17 12:14:00,
2013-09-17 08:16:00,41.3,41.3,30.43,NNE,27,0.0,0.0,100,0.00,,OVC,0.00,WeatherDisplay:10.37,2013-09-17 12:16:00,
2013-09-17 08:17:00,41.3,41.3,30.43,NNE,27,0.0,0.0,100,0.00,,OVC,0.00,WeatherDisplay:10.37,2013-09-17 12:17:00,
2013-09-17 08:18:00,41.4,41.4,30.43,NNE,27,0.0,0.0,100,0.00,,OVC,0.00,WeatherDisplay:10.37,2013-09-17 12:18:00,
2013-09-17 08:19:00,41.5,41.5,30.43,NNE,27,0.0,0.0,100,0.00,,OVC,0.00,WeatherDisplay:10.37,2013-09-17 12:19:00,
2013-09-17 08:22:00,41.8,41.8,30.43,NNE,27,0.0,0.0,100,0.00,,OVC,0.00,WeatherDisplay:10.37,2013-09-17 12:22:00,
2013-09-17 08:23:00,41.8,41.8,30.43,NNE,27,0.0,0.0,100,0.00,,OVC,0.00,WeatherDisplay:10.37,2013-09-17 12:23:00,
2013-09-17 08:25:00,42.0,42.0,30.43,NNE,27,0.0,0.0,100,0.00,,OVC,0.00,WeatherDisplay:10.37,2013-09-17 12:25:00,
2013-09-17 08:27:00,42.2,42.2,30.43,NNE,27,0.0,0.0,100,0.00,,OVC,0.00,WeatherDisplay:10.37,2013-09-17 12:27:00,
2013-09-17 08:28:00,42.3,42.3,30.43,NNE,27,0.2,1.2,100,0.00,,OVC,0.00,WeatherDisplay:10.37,2013-09-17 12:28:00,
2013-09-17 08:29:00,42.4,42.4,30.43,NNE,27,0.0,1.2,100,0.00,,OVC,0.00,WeatherDisplay:10.37,2013-09-17 12:29:00,
2013-09-17 08:30:00,42.5,42.5,30.43,NNE,27,0.0,0.0,100,0.00,,OVC,0.00,WeatherDisplay:10.37,2013-09-17 12:30:00,
2013-09-17 08:32:00,42.8,42.8,30.43,NNE,27,0.0,0.0,100,0.00,,OVC,0.00,WeatherDisplay:10.37,2013-09-17 12:32:00,
2013-09-17 08:33:00,43.0,43.0,30.43,NNE,27,0.0,0.0,100,0.00,,OVC,0.00,WeatherDisplay:10.37,2013-09-17 12:33:00,
2013-09-17 08:34:00,43.1,43.1,30.43,NNE,27,0.0,0.0,100,0.00,,OVC,0.00,WeatherDisplay:10.37,2013-09-17 12:34:00,
2013-09-17 08:35:00,43.3,43.3,30.44,NNE,27,0.0,0.0,100,0.00,,OVC,0.00,WeatherDisplay:10.37,2013-09-17 12:35:00,
2013-09-17 08:37:00,43.7,43.7,30.44,NNE,27,0.0,0.0,100,0.00,,OVC,0.00,WeatherDisplay:10.37,2013-09-17 12:37:00,
2013-09-17 08:38:00,43.7,43.7,30.43,NNE,27,0.0,0.0,100,0.00,,OVC,0.00,WeatherDisplay:10.37,2013-09-17 12:38:00,
2013-09-17 08:39:00,43.9,43.9,30.44,NNE,27,0.0,0.0,100,0.00,,OVC,0.00,WeatherDisplay:10.37,2013-09-17 12:39:00,
2013-09-17 08:40:00,44.0,44.0,30.44,NNE,27,0.0,0.0,100,0.00,,OVC,0.00,WeatherDisplay:10.37,2013-09-17 12:40:00,
2013-09-17 08:43:00,44.4,44.4,30.44,NNE,27,0.6,2.3,100,0.00,,OVC,0.00,WeatherDisplay:10.37,2013-09-17 12:43:00,
2013-09-17 08:44:00,44.5,44.5,30.44,NNE,27,0.1,2.3,100,0.00,,OVC,0.00,WeatherDisplay:10.37,2013-09-17 12:44:00,
2013-09-17 08:45:00,44.6,44.6,30.44,NNE,27,0.4,1.2,100,0.00,,OVC,0.00,WeatherDisplay:10.37,2013-09-17 12:45:00,
2013-09-17 08:48:00,45.0,45.0,30.44,NNE,27,1.4,3.5,100,0.00,,OVC,0.00,WeatherDisplay:10.37,2013-09-17 12:48:00,
2013-09-17 08:49:00,45.1,45.1,30.44,NNE,27,1.5,3.5,100,0.00,,OVC,0.00,WeatherDisplay:10.37,2013-09-17 12:49:00,
2013-09-17 08:50:00,45.3,45.3,30.45,NNE,27,1.6,3.5,100,0.00,,OVC,0.00,WeatherDisplay:10.37,2013-09-17 12:50:00,
2013-09-17 08:53:00,45.7,45.7,30.44,NNE,27,0.3,2.0,100,0.00,,OVC,0.00,WeatherDisplay:10.37,2013-09-17 12:53:00,
2013-09-17 08:54:00,45.8,45.8,30.44,NNE,27,0.7,2.3,100,0.00,,OVC,0.00,WeatherDisplay:10.37,2013-09-17 12:54:00,
2013-09-17 08:55:00,45.9,45.9,30.44,NNE,27,0.5,2.3,100,0.00,,OVC,0.00,WeatherDisplay:10.37,2013-09-17 12:55:00,
2013-09-17 08:58:00,46.2,46.2,30.44,NNE,27,1.1,2.3,100,0.00,,OVC,0.00,WeatherDisplay:10.37,2013-09-17 12:58:00,
2013-09-17 08:59:00,46.3,46.3,30.45,NNE,27,0.8,2.3,100,0.00,,OVC,0.00,WeatherDisplay:10.37,2013-09-17 12:59:00,
2013-09-17 09:00:00,46.4,46.4,30.44,NNE,27,0.0,1.2,100,0.00,,OVC,0.00,WeatherDisplay:10.37,2013-09-17 13:00:00,
2013-09-17 09:03:00,46.7,46.7,30.45,NNE,27,0.6,2.3,100,0.00,CLR,OVC,0.00,WeatherDisplay:10.37,2013-09-17 13:03:00,
2013-09-17 09:04:00,46.7,46.7,30.45,NNE,27,0.3,2.3,100,0.00,CLR,OVC,0.00,WeatherDisplay:10.37,2013-09-17 13:04:00,
2013-09-17 09:05:00,46.9,46.9,30.45,NNE,27,1.6,2.0,100,0.00,CLR,OVC,0.00,WeatherDisplay:10.37,2013-09-17 13:05:00,
2013-09-17 09:06:00,46.9,46.9,30.45,NNE,27,1.8,3.5,100,0.00,CLR,OVC,0.00,WeatherDisplay:10.37,2013-09-17 13:06:00,
2013-09-17 09:08:00,47.1,47.1,30.45,NNE,27,0.7,2.3,100,0.00,CLR,OVC,0.00,WeatherDisplay:10.37,2013-09-17 13:08:00,
2013-09-17 09:09:00,47.1,47.1,30.45,NNE,27,0.0,2.3,100,0.00,CLR,OVC,0.00,WeatherDisplay:10.37,2013-09-17 13:09:00,
2013-09-17 09:10:00,47.2,47.2,30.45,NNE,27,1.2,2.3,100,0.00,CLR,OVC,0.00,WeatherDisplay:10.37,2013-09-17 13:10:00,
2013-09-17 09:11:00,47.2,47.2,30.46,NNE,27,1.6,2.3,100,0.00,CLR,OVC,0.00,WeatherDisplay:10.37,2013-09-17 13:11:00,
2013-09-17 09:13:00,47.5,47.5,30.46,NNE,27,1.8,3.0,100,0.00,CLR,OVC,0.00,WeatherDisplay:10.37,2013-09-17 13:13:00,
2013-09-17 09:14:00,47.5,47.5,30.46,NNE,27,1.9,3.5,100,0.00,CLR,OVC,0.00,WeatherDisplay:10.37,2013-09-17 13:14:00,
2013-09-17 09:15:00,47.6,47.6,30.46,NNE,27,1.9,3.5,100,0.00,CLR,OVC,0.00,WeatherDisplay:10.37,2013-09-17 13:15:00,
2013-09-17 09:16:00,47.6,47.6,30.46,NNE,27,1.7,3.5,100,0.00,CLR,OVC,0.00,WeatherDisplay:10.37,2013-09-17 13:16:00,
2013-09-17 09:17:00,47.6,47.6,30.45,NNE,27,1.6,3.5,100,0.00,CLR,OVC,0.00,WeatherDisplay:10.37,2013-09-17 13:17:00,
2013-09-17 09:19:00,47.8,47.8,30.46,NNE,27,0.4,2.3,100,0.00,CLR,OVC,0.00,WeatherDisplay:10.37,2013-09-17 13:19:00,
2013-09-17 09:20:00,47.8,47.8,30.45,NNE,27,0.5,2.3,100,0.00,CLR,OVC,0.00,WeatherDisplay:10.37,2013-09-17 13:20:00,
2013-09-17 09:22:00,47.8,47.8,30.46,NNE,27,0.4,1.2,100,0.00,CLR,OVC,0.00,WeatherDisplay:10.37,2013-09-17 13:22:00,
2013-09-17 09:24:00,48.0,48.0,30.46,NNE,27,1.4,2.3,100,0.00,CLR,OVC,0.00,WeatherDisplay:10.37,2013-09-17 13:24:00,
2013-09-17 09:25:00,48.1,48.1,30.46,NNE,27,1.4,2.3,100,0.00,CLR,OVC,0.00,WeatherDisplay:10.37,2013-09-17 13:25:00,
2013-09-17 09:26:00,48.1,48.1,30.46,NNE,27,0.6,3.0,100,0.00,CLR,OVC,0.00,WeatherDisplay:10.37,2013-09-17 13:26:00,
2013-09-17 09:28:00,48.3,48.3,30.46,NNE,27,2.4,3.5,100,0.00,CLR,OVC,0.00,WeatherDisplay:10.37,2013-09-17 13:28:00,
2013-09-17 09:29:00,48.5,48.5,30.46,NNE,27,1.3,3.5,100,0.00,CLR,OVC,0.00,WeatherDisplay:10.37,2013-09-17 13:29:00,
2013-09-17 09:30:00,48.5,48.5,30.46,NNE,21,1.9,4.0,100,0.00,CLR,OVC,0.00,WeatherDisplay:10.37,2013-09-17 13:30:00,
2013-09-17 09:31:00,48.7,48.7,30.46,NNE,13,2.7,4.6,100,0.00,CLR,OVC,0.00,WeatherDisplay:10.37,2013-09-17 13:31:00,
2013-09-17 09:33:00,49.0,49.0,30.46,NNE,13,0.1,1.2,100,0.00,CLR,OVC,0.00,WeatherDisplay:10.37,2013-09-17 13:33:00,
2013-09-17 09:34:00,49.2,49.2,30.46,NNE,13,0.0,1.0,100,0.00,CLR,OVC,0.00,WeatherDisplay:10.37,2013-09-17 13:34:00,
2013-09-17 09:35:00,49.2,49.2,30.46,NNE,13,0.6,1.0,100,0.00,CLR,OVC,0.00,WeatherDisplay:10.37,2013-09-17 13:35:00,
2013-09-17 09:36:00,49.4,49.4,30.46,NNE,13,1.6,2.3,100,0.00,CLR,OVC,0.00,WeatherDisplay:10.37,2013-09-17 13:36:00,
2013-09-17 09:39:00,49.8,49.8,30.46,NNE,13,0.5,2.3,100,0.00,CLR,OVC,0.00,WeatherDisplay:10.37,2013-09-17 13:39:00,
2013-09-17 09:40:00,50.0,50.0,30.46,NNE,13,0.9,3.0,100,0.00,CLR,OVC,0.00,WeatherDisplay:10.37,2013-09-17 13:40:00,
2013-09-17 09:41:00,50.2,50.2,30.46,NNE,13,2.5,3.5,100,0.00,CLR,OVC,0.00,WeatherDisplay:10.37,2013-09-17 13:41:00,
2013-09-17 09:44:00,50.6,50.6,30.46,NNE,13,0.0,3.0,100,0.00,CLR,OVC,0.00,WeatherDisplay:10.37,2013-09-17 13:44:00,
2013-09-17 09:45:00,50.8,50.8,30.46,NNE,13,0.3,3.0,100,0.00,CLR,OVC,0.00,WeatherDisplay:10.37,2013-09-17 13:45:00,
2013-09-17 09:46:00,51.0,51.0,30.46,NNE,13,3.0,4.0,100,0.00,CLR,OVC,0.00,WeatherDisplay:10.37,2013-09-17 13:46:00,
2013-09-17 09:49:00,51.3,51.0,30.46,NNE,13,2.0,4.0,99,0.00,CLR,OVC,0.00,WeatherDisplay:10.37,2013-09-17 13:49:00,
2013-09-17 09:50:00,51.4,51.1,30.46,NNE,13,2.8,4.0,99,0.00,CLR,OVC,0.00,WeatherDisplay:10.37,2013-09-17 13:50:00,
2013-09-17 09:51:00,51.5,51.2,30.46,North,8,3.7,4.6,99,0.00,CLR,OVC,0.00,WeatherDisplay:10.37,2013-09-17 13:51:00,
2013-09-17 09:52:00,51.6,51.1,30.46,North,6,2.9,4.6,98,0.00,CLR,OVC,0.00,WeatherDisplay:10.37,2013-09-17 13:52:00,
2013-09-17 09:54:00,51.8,51.3,30.46,North,6,1.6,3.5,98,0.00,CLR,OVC,0.00,WeatherDisplay:10.37,2013-09-17 13:54:00,
2013-09-17 09:55:00,51.9,51.4,30.46,North,6,2.0,5.0,98,0.00,CLR,OVC,0.00,WeatherDisplay:10.37,2013-09-17 13:55:00,
2013-09-17 09:56:00,52.0,51.5,30.46,North,6,2.8,4.6,98,0.00,CLR,OVC,0.00,WeatherDisplay:10.37,2013-09-17 13:56:00,
2013-09-17 09:57:00,52.2,51.7,30.46,North,6,0.2,2.3,98,0.00,CLR,OVC,0.00,WeatherDisplay:10.37,2013-09-17 13:57:00,
2013-09-17 09:59:00,52.5,52.0,30.46,North,6,0.1,2.0,98,0.00,CLR,OVC,0.00,WeatherDisplay:10.37,2013-09-17 13:59:00,
2013-09-17 10:00:00,52.6,51.8,30.46,North,6,0.9,3.0,97,0.00,CLR,OVC,0.00,WeatherDisplay:10.37,2013-09-17 14:00:00,
2013-09-17 10:01:00,52.7,51.9,30.46,North,6,3.0,3.0,97,0.00,CLR,OVC,0.00,WeatherDisplay:10.37,2013-09-17 14:01:00,
2013-09-17 10:03:00,52.8,51.7,30.46,North,6,1.4,3.5,96,0.00,CLR,OVC,0.00,WeatherDisplay:10.37,2013-09-17 14:03:00,
2013-09-17 10:05:00,53.1,52.0,30.46,NNE,20,2.8,4.6,96,0.00,CLR,OVC,0.00,WeatherDisplay:10.37,2013-09-17 14:05:00,
2013-09-17 10:07:00,53.3,51.9,30.46,NNE,20,4.3,4.6,95,0.00,CLR,OVC,0.00,WeatherDisplay:10.37,2013-09-17 14:07:00,
2013-09-17 10:09:00,53.4,51.7,30.46,NNE,20,1.8,4.6,94,0.00,CLR,OVC,0.00,WeatherDisplay:10.37,2013-09-17 14:09:00,
2013-09-17 10:10:00,53.5,51.8,30.46,NNE,20,1.5,4.0,94,0.00,CLR,OVC,0.00,WeatherDisplay:10.37,2013-09-17 14:10:00,
2013-09-17 10:12:00,53.8,52.1,30.46,NNE,22,2.4,3.5,94,0.00,CLR,OVC,0.00,WeatherDisplay:10.37,2013-09-17 14:12:00,
2013-09-17 10:14:00,54.0,52.3,30.46,North,9,3.1,5.0,94,0.00,CLR,OVC,0.00,WeatherDisplay:10.37,2013-09-17 14:14:00,
2013-09-17 10:15:00,54.2,52.2,30.46,North,8,3.3,5.8,93,0.00,CLR,OVC,0.00,WeatherDisplay:10.37,2013-09-17 14:15:00,
2013-09-17 10:16:00,54.2,51.9,30.46,North,8,2.4,4.6,92,0.00,CLR,OVC,0.00,WeatherDisplay:10.37,2013-09-17 14:16:00,
2013-09-17 10:17:00,54.4,52.1,30.46,North,8,1.8,3.5,92,0.00,CLR,OVC,0.00,WeatherDisplay:10.37,2013-09-17 14:17:00,
2013-09-17 10:18:00,54.4,52.1,30.46,North,8,1.8,3.5,92,0.00,CLR,OVC,0.00,WeatherDisplay:10.37,2013-09-17 14:18:00,
2013-09-17 10:19:00,54.5,51.9,30.46,North,356,4.3,5.8,91,0.00,CLR,OVC,0.00,WeatherDisplay:10.37,2013-09-17 14:19:00,
2013-09-17 10:20:00,54.6,51.7,30.46,North,356,3.7,4.6,90,0.01,RA,OVC,0.01,WeatherDisplay:10.37,2013-09-17 14:20:00,
2013-09-17 10:21:00,54.7,51.8,30.46,North,356,3.9,5.8,90,0.01,RA,OVC,0.01,WeatherDisplay:10.37,2013-09-17 14:21:00,
2013-09-17 10:23:00,54.8,51.6,30.46,North,356,2.1,4.6,89,0.01,RA,OVC,0.01,WeatherDisplay:10.37,2013-09-17 14:23:00,
2013-09-17 10:24:00,54.8,51.6,30.46,North,356,4.8,6.9,89,0.01,RA,OVC,0.01,WeatherDisplay:10.37,2013-09-17 14:24:00,
2013-09-17 10:26:00,55.0,51.8,30.45,NNW,339,4.8,5.8,89,0.01,RA,OVC,0.01,WeatherDisplay:10.37,2013-09-17 14:26:00,
2013-09-17 10:28:00,55.0,51.5,30.45,NNW,328,4.3,5.8,88,0.01,RA,OVC,0.01,WeatherDisplay:10.37,2013-09-17 14:28:00,
2013-09-17 10:29:00,55.1,51.3,30.45,NNE,14,6.6,9.2,87,0.01,RA,OVC,0.01,WeatherDisplay:10.37,2013-09-17 14:29:00,
2013-09-17 10:31:00,55.0,50.6,30.45,NNE,14,4.1,8.1,85,0.01,,OVC,0.01,WeatherDisplay:10.37,2013-09-17 14:31:00,
2013-09-17 10:33:00,55.0,50.6,30.45,North,351,5.4,6.9,85,0.01,CLR,OVC,0.01,WeatherDisplay:10.37,2013-09-17 14:33:00,
2013-09-17 10:34:00,55.0,50.6,30.46,North,350,5.3,6.9,85,0.01,CLR,OVC,0.01,WeatherDisplay:10.37,2013-09-17 14:34:00,
2013-09-17 10:35:00,55.1,50.4,30.46,North,350,4.7,5.8,84,0.01,CLR,OVC,0.01,WeatherDisplay:10.37,2013-09-17 14:35:00,
2013-09-17 10:36:00,55.1,50.4,30.45,North,350,2.4,4.6,84,0.01,CLR,OVC,0.01,WeatherDisplay:10.37,2013-09-17 14:36:00,
2013-09-17 10:37:00,55.1,50.4,30.45,North,350,2.0,3.5,84,0.01,CLR,OVC,0.01,WeatherDisplay:10.37,2013-09-17 14:37:00,
2013-09-17 10:38:00,55.2,50.4,30.45,North,350,1.0,2.3,84,0.01,CLR,OVC,0.01,WeatherDisplay:10.37,2013-09-17 14:38:00,
2013-09-17 10:39:00,55.4,51.0,30.45,North,350,2.5,3.5,85,0.01,CLR,OVC,0.01,WeatherDisplay:10.37,2013-09-17 14:39:00,
2013-09-17 10:40:00,55.4,50.6,30.46,North,350,2.6,4.0,84,0.01,CLR,OVC,0.01,WeatherDisplay:10.37,2013-09-17 14:40:00,
2013-09-17 10:41:00,55.6,51.2,30.46,NNW,346,3.8,5.0,85,0.01,CLR,OVC,0.01,WeatherDisplay:10.37,2013-09-17 14:41:00,
2013-09-17 10:42:00,55.8,51.4,30.45,NNW,347,6.4,9.2,85,0.01,CLR,OVC,0.01,WeatherDisplay:10.37,2013-09-17 14:42:00,
2013-09-17 10:43:00,55.8,51.4,30.46,NNW,348,5.9,9.2,85,0.01,CLR,OVC,0.01,WeatherDisplay:10.37,2013-09-17 14:43:00,
2013-09-17 10:45:00,55.9,50.8,30.46,North,351,7.5,10.4,83,0.01,CLR,OVC,0.01,WeatherDisplay:10.37,2013-09-17 14:45:00,
2013-09-17 10:46:00,56.0,50.9,30.46,NNW,347,4.5,5.8,83,0.01,CLR,OVC,0.01,WeatherDisplay:10.37,2013-09-17 14:46:00,
2013-09-17 10:48:00,56.2,50.8,30.45,NNW,346,5.8,8.1,82,0.01,CLR,OVC,0.01,WeatherDisplay:10.37,2013-09-17 14:48:00,
2013-09-17 10:50:00,56.2,50.8,30.45,NNW,341,4.9,5.8,82,0.01,CLR,OVC,0.01,WeatherDisplay:10.37,2013-09-17 14:50:00,
2013-09-17 10:51:00,56.3,51.2,30.45,NNW,347,4.5,7.0,83,0.01,CLR,OVC,0.01,WeatherDisplay:10.37,2013-09-17 14:51:00,
2013-09-17 10:53:00,56.4,50.6,30.45,North,350,4.5,6.9,81,0.01,CLR,OVC,0.01,WeatherDisplay:10.37,2013-09-17 14:53:00,
2013-09-17 10:55:00,56.5,50.4,30.45,NNW,341,4.5,6.9,80,0.01,CLR,OVC,0.01,WeatherDisplay:10.37,2013-09-17 14:55:00,
2013-09-17 10:56:00,56.5,50.7,30.45,NNW,343,5.7,8.0,81,0.01,CLR,OVC,0.01,WeatherDisplay:10.37,2013-09-17 14:56:00,
2013-09-17 10:58:00,56.6,50.8,30.46,NW,319,6.8,8.1,81,0.01,CLR,OVC,0.01,WeatherDisplay:10.37,2013-09-17 14:58:00,
2013-09-17 11:00:00,56.7,50.6,30.45,NW,320,3.6,6.9,80,0.01,CLR,OVC,0.01,WeatherDisplay:10.37,2013-09-17 15:00:00,
2013-09-17 11:02:00,56.7,50.6,30.46,NW,321,6.2,9.2,80,0.01,CLR,OVC,0.01,WeatherDisplay:10.37,2013-09-17 15:02:00,
2013-09-17 11:03:00,56.8,50.7,30.45,NW,309,5.9,8.1,80,0.01,CLR,OVC,0.01,WeatherDisplay:10.37,2013-09-17 15:03:00,
2013-09-17 11:05:00,56.9,50.8,30.45,NW,318,5.1,6.9,80,0.01,CLR,OVC,0.01,WeatherDisplay:10.37,2013-09-17 15:05:00,
2013-09-17 11:07:00,56.9,50.5,30.45,NW,322,7.1,8.1,79,0.01,CLR,OVC,0.01,WeatherDisplay:10.37,2013-09-17 15:07:00,
2013-09-17 11:08:00,57.0,50.5,30.45,NW,322,3.9,6.9,79,0.01,CLR,OVC,0.01,WeatherDisplay:10.37,2013-09-17 15:08:00,
2013-09-17 11:09:00,57.0,50.5,30.45,NW,322,3.8,6.9,79,0.01,CLR,OVC,0.01,WeatherDisplay:10.37,2013-09-17 15:09:00,
2013-09-17 11:10:00,57.1,50.6,30.45,NW,326,6.0,6.9,79,0.01,CLR,OVC,0.01,WeatherDisplay:10.37,2013-09-17 15:10:00,
2013-09-17 11:12:00,57.2,50.4,30.45,NNE,14,6.1,6.9,78,0.01,CLR,OVC,0.01,WeatherDisplay:10.37,2013-09-17 15:12:00,
2013-09-17 11:14:00,57.2,50.1,30.44,NNE,14,2.6,4.6,77,0.01,CLR,OVC,0.01,WeatherDisplay:10.37,2013-09-17 15:14:00,
2013-09-17 11:16:00,57.2,49.7,30.44,NNE,30,6.4,9.2,76,0.01,CLR,OVC,0.01,WeatherDisplay:10.37,2013-09-17 15:16:00,
2013-09-17 11:17:00,57.2,49.3,30.44,NNE,26,4.0,9.2,75,0.01,CLR,OVC,0.01,WeatherDisplay:10.37,2013-09-17 15:17:00,
2013-09-17 11:19:00,57.3,49.8,30.44,NNE,26,1.5,3.5,76,0.01,CLR,OVC,0.01,WeatherDisplay:10.37,2013-09-17 15:19:00,
2013-09-17 11:21:00,57.4,50.2,30.45,NNE,26,2.2,3.5,77,0.00,CLR,OVC,0.01,WeatherDisplay:10.37,2013-09-17 15:21:00,
2013-09-17 11:22:00,57.5,50.3,30.45,NNE,26,2.7,4.0,77,0.00,CLR,OVC,0.01,WeatherDisplay:10.37,2013-09-17 15:22:00,
2013-09-17 11:23:00,57.6,50.1,30.45,North,357,3.4,5.8,76,0.00,CLR,OVC,0.01,WeatherDisplay:10.37,2013-09-17 15:23:00,
2013-09-17 11:24:00,57.6,50.1,30.45,NNE,20,3.0,6.0,76,0.00,CLR,OVC,0.01,WeatherDisplay:10.37,2013-09-17 15:24:00,
2013-09-17 11:25:00,57.7,50.2,30.44,North,0,3.4,5.8,76,0.00,CLR,OVC,0.01,WeatherDisplay:10.37,2013-09-17 15:25:00,
2013-09-17 11:27:00,57.8,49.6,30.45,North,0,2.8,4.6,74,0.00,CLR,OVC,0.01,WeatherDisplay:10.37,2013-09-17 15:27:00,
2013-09-17 11:28:00,57.9,49.7,30.44,North,0,2.3,3.5,74,0.00,CLR,OVC,0.01,WeatherDisplay:10.37,2013-09-17 15:28:00,
2013-09-17 11:29:00,58.0,49.8,30.44,North,0,1.0,3.5,74,0.00,CLR,OVC,0.01,WeatherDisplay:10.37,2013-09-17 15:29:00,
2013-09-17 11:30:00,58.1,50.2,30.44,North,0,2.2,2.3,75,0.00,CLR,OVC,0.01,WeatherDisplay:10.37,2013-09-17 15:30:00,
2013-09-17 11:32:00,58.4,50.1,30.44,North,0,1.6,2.3,74,0.00,CLR,OVC,0.01,WeatherDisplay:10.37,2013-09-17 15:32:00,
2013-09-17 11:33:00,58.5,50.2,30.44,North,0,2.2,4.0,74,0.00,CLR,OVC,0.01,WeatherDisplay:10.37,2013-09-17 15:33:00,
2013-09-17 11:34:00,58.7,50.4,30.44,North,0,3.3,4.6,74,0.00,CLR,OVC,0.01,WeatherDisplay:10.37,2013-09-17 15:34:00,
2013-09-17 11:35:00,58.8,50.2,30.44,North,0,1.7,3.5,73,0.00,CLR,OVC,0.01,WeatherDisplay:10.37,2013-09-17 15:35:00,
2013-09-17 11:37:00,59.0,50.0,30.44,North,0,4.5,5.8,72,0.00,CLR,OVC,0.01,WeatherDisplay:10.37,2013-09-17 15:37:00,
2013-09-17 11:38:00,59.0,50.0,30.44,North,0,3.8,5.8,72,0.00,CLR,OVC,0.01,WeatherDisplay:10.37,2013-09-17 15:38:00,
2013-09-17 11:39:00,59.1,49.7,30.44,North,0,3.3,4.0,71,0.00,CLR,OVC,0.01,WeatherDisplay:10.37,2013-09-17 15:39:00,
2013-09-17 11:40:00,59.2,49.4,30.44,North,11,5.6,6.9,70,0.00,CLR,OVC,0.01,WeatherDisplay:10.37,2013-09-17 15:40:00,
2013-09-17 11:42:00,59.3,49.1,30.44,NNE,17,4.5,6.0,69,0.00,CLR,OVC,0.01,WeatherDisplay:10.37,2013-09-17 15:42:00,
2013-09-17 11:43:00,59.3,49.1,30.44,NNE,17,4.5,5.8,69,0.00,CLR,OVC,0.01,WeatherDisplay:10.37,2013-09-17 15:43:00,
2013-09-17 11:44:00,59.3,49.1,30.44,North,0,3.9,6.9,69,0.00,CLR,OVC,0.01,WeatherDisplay:10.37,2013-09-17 15:44:00,
2013-09-17 11:45:00,59.4,49.2,30.44,North,0,3.4,6.9,69,0.00,CLR,OVC,0.01,WeatherDisplay:10.37,2013-09-17 15:45:00,
2013-09-17 11:47:00,59.5,49.7,30.44,NW,318,4.3,7.0,70,0.00,CLR,OVC,0.01,WeatherDisplay:10.37,2013-09-17 15:47:00,
2013-09-17 11:48:00,59.5,49.7,30.44,NW,311,5.1,6.9,70,0.00,CLR,OVC,0.01,WeatherDisplay:10.37,2013-09-17 15:48:00,
2013-09-17 11:49:00,59.6,49.8,30.44,NW,312,3.6,5.8,70,0.00,CLR,OVC,0.01,WeatherDisplay:10.37,2013-09-17 15:49:00,
2013-09-17 11:51:00,59.8,49.6,30.44,NW,315,4.5,5.8,69,0.00,CLR,OVC,0.01,WeatherDisplay:10.37,2013-09-17 15:51:00,
2013-09-17 11:53:00,59.8,49.2,30.44,NW,314,2.6,4.6,68,0.00,CLR,OVC,0.01,WeatherDisplay:10.37,2013-09-17 15:53:00,
2013-09-17 11:55:00,59.9,49.3,30.44,NW,316,3.2,4.6,68,0.00,CLR,OVC,0.01,WeatherDisplay:10.37,2013-09-17 15:55:00,
2013-09-17 11:57:00,60.1,49.5,30.44,North,351,7.2,10.4,68,0.00,CLR,OVC,0.01,WeatherDisplay:10.37,2013-09-17 15:57:00,
2013-09-17 11:58:00,60.1,49.1,30.44,North,357,7.3,10.4,67,0.00,CLR,OVC,0.01,WeatherDisplay:10.37,2013-09-17 15:58:00,
2013-09-17 11:59:00,60.1,48.7,30.44,NNW,346,7.5,10.4,66,0.00,CLR,OVC,0.01,WeatherDisplay:10.37,2013-09-17 15:59:00,
2013-09-17 12:00:00,60.1,48.7,30.44,North,0,7.7,11.5,66,0.00,CLR,OVC,0.01,WeatherDisplay:10.37,2013-09-17 16:00:00,
2013-09-17 12:02:00,60.0,48.2,30.44,North,0,5.4,8.1,65,0.00,CLR,OVC,0.01,WeatherDisplay:10.37,2013-09-17 16:02:00,
2013-09-17 12:03:00,60.0,48.2,30.43,North,10,4.5,5.8,65,0.00,CLR,OVC,0.01,WeatherDisplay:10.37,2013-09-17 16:03:00,
2013-09-17 12:04:00,60.0,48.2,30.44,North,10,3.9,6.9,65,0.00,CLR,OVC,0.01,WeatherDisplay:10.37,2013-09-17 16:04:00,
2013-09-17 12:05:00,60.1,48.7,30.43,North,11,5.0,8.0,66,0.00,CLR,OVC,0.01,WeatherDisplay:10.37,2013-09-17 16:05:00,
2013-09-17 12:07:00,60.1,48.3,30.43,NE,53,4.8,8.1,65,0.00,CLR,OVC,0.01,WeatherDisplay:10.37,2013-09-17 16:07:00,
2013-09-17 12:08:00,60.1,48.3,30.43,NE,53,1.6,5.8,65,0.00,CLR,OVC,0.01,WeatherDisplay:10.37,2013-09-17 16:08:00,
2013-09-17 12:09:00,60.1,48.3,30.43,North,349,6.4,10.0,65,0.00,CLR,OVC,0.01,WeatherDisplay:10.37,2013-09-17 16:09:00,
2013-09-17 12:10:00,60.2,48.8,30.43,North,359,8.6,11.5,66,0.00,CLR,OVC,0.01,WeatherDisplay:10.37,2013-09-17 16:10:00,
2013-09-17 12:13:00,60.3,49.7,30.43,NNW,343,4.6,10.0,68,0.00,CLR,OVC,0.01,WeatherDisplay:10.37,2013-09-17 16:13:00,
2013-09-17 12:14:00,60.4,49.4,30.43,North,0,8.1,11.5,67,0.00,CLR,OVC,0.01,WeatherDisplay:10.37,2013-09-17 16:14:00,
2013-09-17 12:16:00,60.5,48.7,30.44,North,352,5.1,6.9,65,0.00,CLR,OVC,0.01,WeatherDisplay:10.37,2013-09-17 16:16:00,
2013-09-17 12:18:00,60.6,48.4,30.43,North,352,2.2,4.6,64,0.00,CLR,OVC,0.01,WeatherDisplay:10.37,2013-09-17 16:18:00,
2013-09-17 12:19:00,60.6,48.4,30.43,North,352,1.5,3.5,64,0.00,CLR,OVC,0.01,WeatherDisplay:10.37,2013-09-17 16:19:00,
2013-09-17 12:20:00,60.7,48.0,30.43,North,352,1.3,3.5,63,0.00,CLR,OVC,0.01,WeatherDisplay:10.37,2013-09-17 16:20:00,
2013-09-17 12:21:00,60.8,48.5,30.43,North,350,3.1,3.5,64,0.00,CLR,OVC,0.01,WeatherDisplay:10.37,2013-09-17 16:21:00,
2013-09-17 12:23:00,60.8,49.0,30.43,NNW,331,3.0,3.5,65,0.00,CLR,OVC,0.01,WeatherDisplay:10.37,2013-09-17 16:23:00,
2013-09-17 12:24:00,60.8,49.0,30.44,NNW,333,4.0,4.0,65,0.00,CLR,OVC,0.01,WeatherDisplay:10.37,2013-09-17 16:24:00,
2013-09-17 12:25:00,60.8,48.5,30.43,NNW,334,2.2,3.5,64,0.00,CLR,OVC,0.01,WeatherDisplay:10.37,2013-09-17 16:25:00,
2013-09-17 12:26:00,60.8,48.1,30.43,NNW,334,1.9,3.0,63,0.00,CLR,OVC,0.01,WeatherDisplay:10.37,2013-09-17 16:26:00,
2013-09-17 12:29:00,60.9,48.6,30.43,NNW,336,6.8,9.2,64,0.00,CLR,OVC,0.01,WeatherDisplay:10.37,2013-09-17 16:29:00,
2013-09-17 12:31:00,60.9,48.2,30.43,North,1,4.2,9.2,63,0.00,CLR,OVC,0.01,WeatherDisplay:10.37,2013-09-17 16:31:00,
2013-09-17 12:34:00,60.9,48.2,30.43,North,351,2.4,3.5,63,0.00,CLR,OVC,0.01,WeatherDisplay:10.37,2013-09-17 16:34:00,
2013-09-17 12:36:00,61.0,48.7,30.43,NW,320,4.2,5.8,64,0.00,CLR,OVC,0.01,WeatherDisplay:10.37,2013-09-17 16:36:00,
2013-09-17 12:39:00,61.1,49.2,30.43,NNW,330,5.6,8.1,65,0.00,CLR,OVC,0.01,WeatherDisplay:10.37,2013-09-17 16:39:00,
2013-09-17 12:41:00,61.1,49.2,30.42,NW,321,6.5,9.0,65,0.00,CLR,OVC,0.01,WeatherDisplay:10.37,2013-09-17 16:41:00,
2013-09-17 12:42:00,61.1,49.2,30.43,NW,321,6.3,9.2,65,0.00,CLR,OVC,0.01,WeatherDisplay:10.37,2013-09-17 16:42:00,
2013-09-17 12:44:00,61.0,49.1,30.43,NW,320,6.5,8.1,65,0.00,CLR,OVC,0.01,WeatherDisplay:10.37,2013-09-17 16:44:00,
2013-09-17 12:45:00,61.0,49.1,30.42,North,353,5.8,6.9,65,0.00,CLR,OVC,0.01,WeatherDisplay:10.37,2013-09-17 16:45:00,
2013-09-17 12:46:00,61.0,48.7,30.43,North,356,5.2,6.9,64,0.00,CLR,OVC,0.01,WeatherDisplay:10.37,2013-09-17 16:46:00,
2013-09-17 12:47:00,60.9,48.2,30.43,NW,326,4.7,6.9,63,0.00,CLR,OVC,0.01,WeatherDisplay:10.37,2013-09-17 16:47:00,
2013-09-17 12:49:00,60.9,49.1,30.42,NW,319,3.4,6.9,65,0.00,CLR,OVC,0.01,WeatherDisplay:10.37,2013-09-17 16:49:00,
2013-09-17 12:50:00,60.9,49.1,30.42,NW,319,3.8,4.6,65,0.00,CLR,OVC,0.01,WeatherDisplay:10.37,2013-09-17 16:50:00,
2013-09-17 12:51:00,60.9,49.1,30.42,NW,319,3.0,6.0,65,0.00,CLR,OVC,0.01,WeatherDisplay:10.37,2013-09-17 16:51:00,
2013-09-17 12:52:00,60.9,48.2,30.42,NW,320,4.2,5.8,63,0.00,CLR,OVC,0.01,WeatherDisplay:10.37,2013-09-17 16:52:00,
2013-09-17 12:54:00,60.9,48.6,30.42,NNE,26,5.9,8.1,64,0.00,CLR,OVC,0.01,WeatherDisplay:10.37,2013-09-17 16:54:00,
2013-09-17 12:56:00,60.9,47.8,30.42,NNE,12,3.6,6.9,62,0.00,CLR,OVC,0.01,WeatherDisplay:10.37,2013-09-17 16:56:00,
2013-09-17 12:57:00,61.0,48.3,30.42,NNE,12,4.0,6.9,63,0.00,CLR,OVC,0.01,WeatherDisplay:10.37,2013-09-17 16:57:00,
2013-09-17 12:59:00,61.2,48.5,30.42,North,356,5.5,7.0,63,0.00,CLR,OVC,0.01,WeatherDisplay:10.37,2013-09-17 16:59:00,
2013-09-17 13:01:00,61.3,48.2,30.42,North,356,7.1,10.4,62,0.00,CLR,OVC,0.01,WeatherDisplay:10.37,2013-09-17 17:01:00,
2013-09-17 13:02:00,61.4,48.3,30.42,North,0,8.5,10.4,62,0.00,CLR,OVC,0.01,WeatherDisplay:10.37,2013-09-17 17:02:00,
2013-09-17 13:04:00,61.4,47.8,30.42,North,5,5.0,10.0,61,0.00,CLR,OVC,0.01,WeatherDisplay:10.37,2013-09-17 17:04:00,
2013-09-17 13:06:00,61.5,47.5,30.42,North,0,1.7,3.5,60,0.00,CLR,OVC,0.01,WeatherDisplay:10.37,2013-09-17 17:06:00,
2013-09-17 13:07:00,61.5,47.5,30.42,North,0,0.8,3.5,60,0.00,CLR,OVC,0.01,WeatherDisplay:10.37,2013-09-17 17:07:00,
2013-09-17 13:09:00,61.6,48.0,30.42,North,0,1.0,2.3,61,0.00,CLR,OVC,0.01,WeatherDisplay:10.37,2013-09-17 17:09:00,
2013-09-17 13:10:00,61.7,48.5,30.42,North,0,1.1,3.0,62,0.00,CLR,OVC,0.01,WeatherDisplay:10.37,2013-09-17 17:10:00,
2013-09-17 13:11:00,61.8,47.8,30.42,WSW,251,4.6,6.9,60,0.00,CLR,OVC,0.01,WeatherDisplay:10.37,2013-09-17 17:11:00,
2013-09-17 13:12:00,61.8,48.6,30.41,WSW,251,3.2,4.6,62,0.00,CLR,OVC,0.01,WeatherDisplay:10.37,2013-09-17 17:12:00,
2013-09-17 13:13:00,61.8,48.2,30.41,WSW,251,2.7,4.6,61,0.00,CLR,OVC,0.01,WeatherDisplay:10.37,2013-09-17 17:13:00,
2013-09-17 13:15:00,61.9,47.9,30.42,WSW,251,2.7,3.5,60,0.00,CLR,OVC,0.01,WeatherDisplay:10.37,2013-09-17 17:15:00,
2013-09-17 13:17:00,62.0,49.3,30.42,NW,311,4.4,5.0,63,0.00,CLR,OVC,0.01,WeatherDisplay:10.37,2013-09-17 17:17:00,
2013-09-17 13:18:00,62.1,49.8,30.41,NW,320,5.4,6.9,64,0.00,CLR,OVC,0.01,WeatherDisplay:10.37,2013-09-17 17:18:00,
2013-09-17 13:20:00,62.2,49.0,30.41,WNW,299,5.6,6.9,62,0.00,CLR,OVC,0.01,WeatherDisplay:10.37,2013-09-17 17:20:00,
2013-09-17 13:22:00,62.1,48.0,30.41,WNW,299,2.8,3.5,60,0.00,CLR,OVC,0.01,WeatherDisplay:10.37,2013-09-17 17:22:00,
2013-09-17 13:23:00,62.1,48.9,30.41,North,1,5.2,11.0,62,0.00,CLR,OVC,0.01,WeatherDisplay:10.37,2013-09-17 17:23:00,
2013-09-17 13:25:00,62.2,49.4,30.41,North,3,4.9,11.5,63,0.00,CLR,OVC,0.01,WeatherDisplay:10.37,2013-09-17 17:25:00,
2013-09-17 13:27:00,62.3,49.1,30.41,NNW,332,4.8,9.2,62,0.00,CLR,OVC,0.01,WeatherDisplay:10.37,2013-09-17 17:27:00,
2013-09-17 13:29:00,62.4,49.6,30.41,North,3,4.4,4.6,63,0.00,CLR,OVC,0.01,WeatherDisplay:10.37,2013-09-17 17:29:00,
2013-09-17 13:30:00,62.5,48.4,30.41,North,0,5.5,6.9,60,0.00,CLR,OVC,0.01,WeatherDisplay:10.37,2013-09-17 17:30:00,
2013-09-17 13:32:00,62.5,48.4,30.41,NNW,342,6.9,9.2,60,0.00,CLR,OVC,0.01,WeatherDisplay:10.37,2013-09-17 17:32:00,
2013-09-17 13:34:00,62.5,48.4,30.41,North,350,4.1,7.0,60,0.00,CLR,OVC,0.01,WeatherDisplay:10.37,2013-09-17 17:34:00,
2013-09-17 13:35:00,62.5,48.4,30.41,NNW,329,3.8,6.9,60,0.00,CLR,OVC,0.01,WeatherDisplay:10.37,2013-09-17 17:35:00,
2013-09-17 13:36:00,62.6,48.5,30.41,NNW,329,2.5,3.5,60,0.00,CLR,OVC,0.01,WeatherDisplay:10.37,2013-09-17 17:36:00,
2013-09-17 13:38:00,62.6,48.5,30.41,NNW,329,2.0,3.5,60,0.00,CLR,OVC,0.01,WeatherDisplay:10.37,2013-09-17 17:38:00,
2013-09-17 13:39:00,62.7,48.2,30.40,NW,323,3.3,4.0,59,0.00,CLR,OVC,0.01,WeatherDisplay:10.37,2013-09-17 17:39:00,
2013-09-17 13:40:00,62.7,48.2,30.40,NW,323,3.8,5.8,59,0.00,CLR,OVC,0.01,WeatherDisplay:10.37,2013-09-17 17:40:00,
2013-09-17 13:41:00,62.8,48.3,30.40,NW,323,3.0,4.6,59,0.00,CLR,OVC,0.01,WeatherDisplay:10.37,2013-09-17 17:41:00,
2013-09-17 13:43:00,62.8,48.3,30.40,NW,318,5.1,6.9,59,0.00,CLR,OVC,0.01,WeatherDisplay:10.37,2013-09-17 17:43:00,
2013-09-17 13:44:00,62.9,48.8,30.40,NW,318,3.5,6.9,60,0.00,CLR,OVC,0.01,WeatherDisplay:10.37,2013-09-17 17:44:00,
2013-09-17 13:45:00,62.8,48.3,30.40,WNW,301,5.6,9.2,59,0.00,CLR,OVC,0.01,WeatherDisplay:10.37,2013-09-17 17:45:00,
2013-09-17 13:48:00,62.5,47.5,30.40,WNW,294,4.5,5.8,58,0.00,CLR,OVC,0.01,WeatherDisplay:10.37,2013-09-17 17:48:00,
2013-09-17 13:49:00,62.3,47.3,30.40,WNW,294,1.0,4.6,58,0.00,CLR,OVC,0.01,WeatherDisplay:10.37,2013-09-17 17:49:00,
2013-09-17 13:50:00,62.3,47.8,30.40,WNW,294,1.1,4.0,59,0.00,CLR,OVC,0.01,WeatherDisplay:10.37,2013-09-17 17:50:00,
2013-09-17 13:51:00,62.1,47.6,30.40,WNW,294,3.4,4.6,59,0.00,CLR,OVC,0.01,WeatherDisplay:10.37,2013-09-17 17:51:00,
2013-09-17 13:53:00,62.0,48.4,30.40,WNW,290,4.0,5.8,61,0.00,CLR,OVC,0.01,WeatherDisplay:10.37,2013-09-17 17:53:00,
2013-09-17 13:54:00,62.0,48.4,30.40,WNW,294,3.0,6.0,61,0.00,CLR,OVC,0.01,WeatherDisplay:10.37,2013-09-17 17:54:00,
2013-09-17 13:55:00,62.2,49.0,30.40,WNW,290,2.1,3.5,62,0.00,CLR,OVC,0.01,WeatherDisplay:10.37,2013-09-17 17:55:00,
2013-09-17 13:56:00,62.2,48.1,30.40,NW,316,3.3,4.0,60,0.00,CLR,OVC,0.01,WeatherDisplay:10.37,2013-09-17 17:56:00,
2013-09-17 13:58:00,62.3,47.3,30.40,NNE,27,7.1,10.0,58,0.00,CLR,OVC,0.01,WeatherDisplay:10.37,2013-09-17 17:58:00,
2013-09-17 13:59:00,62.3,46.9,30.40,NE,47,6.6,10.4,57,0.00,CLR,OVC,0.01,WeatherDisplay:10.37,2013-09-17 17:59:00,
2013-09-17 14:01:00,62.4,47.4,30.39,NE,47,2.7,4.0,58,0.00,CLR,OVC,0.01,WeatherDisplay:10.37,2013-09-17 18:01:00,
2013-09-17 14:03:00,62.5,47.5,30.39,North,354,4.5,5.8,58,0.00,CLR,OVC,0.01,WeatherDisplay:10.37,2013-09-17 18:03:00,
2013-09-17 14:04:00,62.7,48.2,30.39,North,354,5.2,6.0,59,0.00,CLR,OVC,0.01,WeatherDisplay:10.37,2013-09-17 18:04:00,
2013-09-17 14:06:00,62.8,47.8,30.39,North,354,3.9,6.9,58,0.00,CLR,OVC,0.01,WeatherDisplay:10.37,2013-09-17 18:06:00,
2013-09-17 14:08:00,63.0,47.1,30.39,North,354,1.7,2.3,56,0.00,CLR,OVC,0.01,WeatherDisplay:10.37,2013-09-17 18:08:00,
2013-09-17 14:09:00,63.1,47.1,30.39,North,354,1.3,2.3,56,0.00,CLR,OVC,0.01,WeatherDisplay:10.37,2013-09-17 18:09:00,
2013-09-17 14:11:00,63.3,48.3,30.39,North,3,3.7,8.0,58,0.00,CLR,OVC,0.01,WeatherDisplay:10.37,2013-09-17 18:11:00,
2013-09-17 14:13:00,63.5,48.0,30.39,North,0,2.3,4.6,57,0.00,CLR,OVC,0.01,WeatherDisplay:10.37,2013-09-17 18:13:00,
2013-09-17 14:14:00,63.7,47.7,30.39,North,0,1.8,3.5,56,0.00,CLR,OVC,0.01,WeatherDisplay:10.37,2013-09-17 18:14:00,
2013-09-17 14:16:00,63.9,47.4,30.39,North,0,1.0,2.3,55,0.00,CLR,OVC,0.01,WeatherDisplay:10.37,2013-09-17 18:16:00,
2013-09-17 14:19:00,64.1,47.6,30.39,North,0,4.3,5.8,55,0.00,CLR,OVC,0.01,WeatherDisplay:10.37,2013-09-17 18:19:00,
2013-09-17 14:20:00,64.4,47.4,30.39,North,0,3.7,5.8,54,0.00,CLR,OVC,0.01,WeatherDisplay:10.37,2013-09-17 18:20:00,
2013-09-17 14:21:00,64.4,47.9,30.39,North,9,5.1,8.0,55,0.00,CLR,OVC,0.01,WeatherDisplay:10.37,2013-09-17 18:21:00,
2013-09-17 14:24:00,64.1,45.1,30.39,NNE,20,3.9,10.4,50,0.00,CLR,OVC,0.01,WeatherDisplay:10.37,2013-09-17 18:24:00,
2013-09-17 14:26:00,64.4,46.9,30.38,North,353,4.4,5.8,53,0.00,CLR,OVC,0.01,WeatherDisplay:10.37,2013-09-17 18:26:00,
2013-09-17 14:29:00,64.2,47.2,30.38,NNE,19,4.5,8.1,54,0.00,CLR,OVC,0.01,WeatherDisplay:10.37,2013-09-17 18:29:00,
2013-09-17 14:30:00,64.4,46.4,30.38,NNE,14,2.9,4.6,52,0.00,CLR,OVC,0.01,WeatherDisplay:10.37,2013-09-17 18:30:00,
2013-09-17 14:31:00,64.4,46.4,30.38,NNE,14,2.8,4.6,52,0.00,CLR,OVC,0.01,WeatherDisplay:10.37,2013-09-17 18:31:00,
2013-09-17 14:32:00,64.5,47.5,30.38,NNW,347,4.7,6.0,54,0.00,CLR,OVC,0.01,WeatherDisplay:10.37,2013-09-17 18:32:00,
2013-09-17 14:34:00,64.6,46.6,30.38,NW,323,2.9,8.1,52,0.00,CLR,OVC,0.01,WeatherDisplay:10.37,2013-09-17 18:34:00,
2013-09-17 14:35:00,64.6,48.5,30.38,North,4,4.1,8.1,56,0.00,CLR,OVC,0.01,WeatherDisplay:10.37,2013-09-17 18:35:00,
2013-09-17 14:37:00,64.5,47.0,30.38,North,3,5.6,8.1,53,0.00,CLR,OVC,0.01,WeatherDisplay:10.37,2013-09-17 18:37:00,
2013-09-17 14:39:00,64.5,47.0,30.38,North,0,3.6,4.6,53,0.00,CLR,OVC,0.01,WeatherDisplay:10.37,2013-09-17 18:39:00,
2013-09-17 14:40:00,64.6,47.6,30.38,North,359,3.5,4.6,54,0.00,CLR,OVC,0.01,WeatherDisplay:10.37,2013-09-17 18:40:00,
2013-09-17 14:42:00,64.6,47.6,30.38,NNE,25,4.7,10.0,54,0.00,CLR,OVC,0.01,WeatherDisplay:10.37,2013-09-17 18:42:00,
2013-09-17 14:43:00,64.7,47.2,30.38,North,8,6.2,10.4,53,0.00,CLR,OVC,0.01,WeatherDisplay:10.37,2013-09-17 18:43:00,
2013-09-17 14:45:00,64.7,47.2,30.38,North,352,4.6,9.2,53,0.00,CLR,OVC,0.01,WeatherDisplay:10.37,2013-09-17 18:45:00,
2013-09-17 14:47:00,64.8,47.3,30.38,North,358,4.2,5.8,53,0.00,CLR,OVC,0.01,WeatherDisplay:10.37,2013-09-17 18:47:00,
2013-09-17 14:49:00,64.8,47.3,30.37,NNE,20,6.4,6.9,53,0.00,CLR,OVC,0.01,WeatherDisplay:10.37,2013-09-17 18:49:00,
2013-09-17 14:50:00,64.8,47.8,30.37,NNE,14,5.3,8.1,54,0.00,CLR,OVC,0.01,WeatherDisplay:10.37,2013-09-17 18:50:00,
2013-09-17 14:51:00,64.8,48.2,30.37,North,352,6.3,8.1,55,0.00,CLR,OVC,0.01,WeatherDisplay:10.37,2013-09-17 18:51:00,
2013-09-17 14:52:00,64.9,48.3,30.37,NNW,338,7.7,10.4,55,0.00,CLR,OVC,0.01,WeatherDisplay:10.37,2013-09-17 18:52:00,
2013-09-17 14:53:00,64.9,48.8,30.37,NNW,338,6.2,10.4,56,0.00,CLR,OVC,0.01,WeatherDisplay:10.37,2013-09-17 18:53:00,
2013-09-17 14:54:00,65.0,48.9,30.37,NNW,338,4.9,9.2,56,0.00,CLR,OVC,0.01,WeatherDisplay:10.37,2013-09-17 18:54:00,
2013-09-17 14:55:00,65.0,49.4,30.37,NNW,333,4.6,8.1,57,0.00,CLR,OVC,0.01,WeatherDisplay:10.37,2013-09-17 18:55:00,
2013-09-17 14:56:00,65.0,49.4,30.37,NNW,341,3.6,6.9,57,0.00,CLR,OVC,0.01,WeatherDisplay:10.37,2013-09-17 18:56:00,
2013-09-17 14:57:00,65.0,47.9,30.37,North,0,4.9,6.9,54,0.00,CLR,OVC,0.01,WeatherDisplay:10.37,2013-09-17 18:57:00,
2013-09-17 14:59:00,65.0,47.5,30.37,NNW,348,3.0,8.0,53,0.00,CLR,OVC,0.01,WeatherDisplay:10.37,2013-09-17 18:59:00,
2013-09-17 15:00:00,65.1,48.0,30.37,NE,35,4.1,5.0,54,0.00,CLR,OVC,0.01,WeatherDisplay:10.37,2013-09-17 19:00:00,
2013-09-17 15:01:00,65.1,48.0,30.37,North,7,4.5,6.9,54,0.00,CLR,OVC,0.01,WeatherDisplay:10.37,2013-09-17 19:01:00,
2013-09-17 15:02:00,65.2,47.6,30.37,North,4,3.2,5.0,53,0.00,CLR,OVC,0.01,WeatherDisplay:10.37,2013-09-17 19:02:00,
2013-09-17 15:04:00,65.2,47.2,30.37,North,3,3.0,7.0,52,0.00,CLR,OVC,0.01,WeatherDisplay:10.37,2013-09-17 19:04:00,
2013-09-17 15:05:00,65.2,46.6,30.37,North,0,4.7,6.9,51,0.00,CLR,OVC,0.01,WeatherDisplay:10.37,2013-09-17 19:05:00,
2013-09-17 15:06:00,65.2,47.1,30.37,North,0,4.3,6.9,52,0.00,CLR,OVC,0.01,WeatherDisplay:10.37,2013-09-17 19:06:00,
2013-09-17 15:07:00,65.1,46.5,30.37,North,0,2.9,3.5,51,0.00,CLR,OVC,0.01,WeatherDisplay:10.37,2013-09-17 19:07:00,
2013-09-17 15:09:00,65.2,47.1,30.36,North,0,4.2,5.8,52,0.00,CLR,OVC,0.01,WeatherDisplay:10.37,2013-09-17 19:09:00,
2013-09-17 15:10:00,65.2,46.6,30.37,North,0,3.9,4.6,51,0.00,CLR,OVC,0.01,WeatherDisplay:10.37,2013-09-17 19:10:00,
2013-09-17 15:11:00,65.2,46.6,30.36,North,0,3.7,5.0,51,0.00,CLR,OVC,0.01,WeatherDisplay:10.37,2013-09-17 19:11:00,
2013-09-17 15:12:00,65.3,47.2,30.36,North,0,6.1,9.2,52,0.00,CLR,OVC,0.01,WeatherDisplay:10.37,2013-09-17 19:12:00,
2013-09-17 15:14:00,65.4,46.8,30.36,North,358,7.0,9.0,51,0.00,CLR,OVC,0.01,WeatherDisplay:10.37,2013-09-17 19:14:00,
2013-09-17 15:16:00,65.5,47.4,30.36,North,355,4.2,6.9,52,0.00,CLR,OVC,0.01,WeatherDisplay:10.37,2013-09-17 19:16:00,
2013-09-17 15:17:00,65.5,47.4,30.37,North,355,3.4,4.6,52,0.00,CLR,OVC,0.01,WeatherDisplay:10.37,2013-09-17 19:17:00,
2013-09-17 15:19:00,65.6,46.5,30.36,North,356,4.0,7.0,50,0.00,CLR,OVC,0.01,WeatherDisplay:10.37,2013-09-17 19:19:00,
2013-09-17 15:21:00,65.5,46.9,30.36,North,355,2.9,6.9,51,0.00,CLR,OVC,0.01,WeatherDisplay:10.37,2013-09-17 19:21:00,
2013-09-17 15:22:00,65.5,46.9,30.36,North,353,3.8,7.0,51,0.00,CLR,OVC,0.01,WeatherDisplay:10.37,2013-09-17 19:22:00,
2013-09-17 15:24:00,65.6,46.5,30.36,NNE,16,6.5,8.1,50,0.00,CLR,OVC,0.01,WeatherDisplay:10.37,2013-09-17 19:24:00,
2013-09-17 15:26:00,65.6,45.9,30.36,NNE,14,4.2,5.8,49,0.00,CLR,OVC,0.01,WeatherDisplay:10.37,2013-09-17 19:26:00,
2013-09-17 15:27:00,65.6,46.5,30.36,NNE,15,3.6,5.0,50,0.00,CLR,OVC,0.01,WeatherDisplay:10.37,2013-09-17 19:27:00,
2013-09-17 15:29:00,65.7,46.5,30.36,NNE,14,5.2,8.0,50,0.00,CLR,OVC,0.01,WeatherDisplay:10.37,2013-09-17 19:29:00,
2013-09-17 15:31:00,65.5,45.8,30.35,NNE,15,6.4,8.1,49,0.00,CLR,OVC,0.01,WeatherDisplay:10.37,2013-09-17 19:31:00,
2013-09-17 15:32:00,65.5,46.4,30.35,NNE,17,6.4,8.1,50,0.00,CLR,OVC,0.01,WeatherDisplay:10.37,2013-09-17 19:32:00,
2013-09-17 15:34:00,65.4,46.8,30.35,North,0,5.2,5.8,51,0.00,CLR,OVC,0.01,WeatherDisplay:10.37,2013-09-17 19:34:00,
2013-09-17 15:37:00,65.5,46.9,30.35,North,0,3.6,6.9,51,0.00,CLR,OVC,0.01,WeatherDisplay:10.37,2013-09-17 19:37:00,
2013-09-17 15:38:00,65.5,47.9,30.35,North,358,3.7,6.0,53,0.00,CLR,OVC,0.01,WeatherDisplay:10.37,2013-09-17 19:38:00,
2013-09-17 15:39:00,65.5,47.4,30.35,North,357,3.5,4.6,52,0.00,CLR,OVC,0.01,WeatherDisplay:10.37,2013-09-17 19:39:00,
2013-09-17 15:42:00,65.6,48.0,30.35,North,357,1.8,4.6,53,0.00,CLR,OVC,0.01,WeatherDisplay:10.37,2013-09-17 19:42:00,
2013-09-17 15:43:00,65.7,48.1,30.35,North,357,2.9,4.6,53,0.00,CLR,OVC,0.01,WeatherDisplay:10.37,2013-09-17 19:43:00,
2013-09-17 15:44:00,65.8,47.7,30.35,NNE,14,5.8,8.1,52,0.00,CLR,OVC,0.01,WeatherDisplay:10.37,2013-09-17 19:44:00,
2013-09-17 15:47:00,65.8,46.6,30.35,NNE,13,3.4,4.6,50,0.00,CLR,OVC,0.01,WeatherDisplay:10.37,2013-09-17 19:47:00,
2013-09-17 15:48:00,65.8,46.6,30.35,North,6,3.0,6.0,50,0.00,CLR,OVC,0.01,WeatherDisplay:10.37,2013-09-17 19:48:00,
2013-09-17 15:49:00,65.8,46.6,30.35,North,0,4.4,5.8,50,0.00,CLR,OVC,0.01,WeatherDisplay:10.37,2013-09-17 19:49:00,
2013-09-17 15:52:00,66.0,46.3,30.34,North,0,4.3,6.9,49,0.00,CLR,OVC,0.01,WeatherDisplay:10.37,2013-09-17 19:52:00,
2013-09-17 15:53:00,66.0,46.8,30.34,North,0,2.5,6.9,50,0.00,CLR,OVC,0.01,WeatherDisplay:10.37,2013-09-17 19:53:00,
2013-09-17 15:54:00,66.1,47.4,30.34,North,0,2.0,3.5,51,0.00,CLR,OVC,0.01,WeatherDisplay:10.37,2013-09-17 19:54:00,
2013-09-17 15:57:00,66.4,49.2,30.34,North,0,4.3,4.6,54,0.00,CLR,OVC,0.01,WeatherDisplay:10.37,2013-09-17 19:57:00,
2013-09-17 15:59:00,66.5,48.8,30.34,North,0,4.3,4.6,53,0.00,CLR,OVC,0.01,WeatherDisplay:10.37,2013-09-17 19:59:00,
2013-09-17 16:00:00,66.5,49.3,30.34,North,0,3.8,4.6,54,0.00,CLR,OVC,0.01,WeatherDisplay:10.37,2013-09-17 20:00:00,
2013-09-17 16:01:00,66.6,48.9,30.34,North,0,3.2,4.6,53,0.00,CLR,OVC,0.01,WeatherDisplay:10.37,2013-09-17 20:01:00,
2013-09-17 16:03:00,66.7,49.0,30.34,North,0,2.4,3.5,53,0.00,CLR,OVC,0.01,WeatherDisplay:10.37,2013-09-17 20:03:00,
2013-09-17 16:04:00,66.9,48.7,30.34,North,0,2.2,3.5,52,0.00,CLR,OVC,0.01,WeatherDisplay:10.37,2013-09-17 20:04:00,
2013-09-17 16:05:00,66.9,48.7,30.34,North,358,3.3,6.0,52,0.00,CLR,OVC,0.01,WeatherDisplay:10.37,2013-09-17 20:05:00,
2013-09-17 16:06:00,66.9,47.6,30.34,NNE,12,6.4,8.1,50,0.00,CLR,OVC,0.01,WeatherDisplay:10.37,2013-09-17 20:06:00,
2013-09-17 16:08:00,66.8,47.0,30.34,NNE,12,5.7,8.1,49,0.00,CLR,OVC,0.01,WeatherDisplay:10.37,2013-09-17 20:08:00,
2013-09-17 16:09:00,66.7,46.9,30.34,North,11,4.6,6.9,49,0.00,CLR,OVC,0.01,WeatherDisplay:10.37,2013-09-17 20:09:00,
2013-09-17 16:10:00,66.6,46.8,30.34,North,11,4.2,6.9,49,0.00,CLR,OVC,0.01,WeatherDisplay:10.37,2013-09-17 20:10:00,
2013-09-17 16:11:00,66.6,47.4,30.34,North,11,4.2,4.6,50,0.00,CLR,OVC,0.01,WeatherDisplay:10.37,2013-09-17 20:11:00,
2013-09-17 16:13:00,66.5,48.3,30.34,North,10,2.6,4.6,52,0.00,CLR,OVC,0.01,WeatherDisplay:10.37,2013-09-17 20:13:00,
2013-09-17 16:14:00,66.6,48.4,30.34,North,9,3.6,5.0,52,0.00,CLR,OVC,0.01,WeatherDisplay:10.37,2013-09-17 20:14:00,
2013-09-17 16:15:00,66.6,48.4,30.33,NNE,17,4.4,7.0,52,0.00,CLR,OVC,0.01,WeatherDisplay:10.37,2013-09-17 20:15:00,
2013-09-17 16:17:00,66.5,47.8,30.34,NNE,17,6.4,9.2,51,0.00,CLR,OVC,0.01,WeatherDisplay:10.37,2013-09-17 20:17:00,
2013-09-17 16:18:00,66.5,47.8,30.33,NNE,15,3.7,6.9,51,0.00,CLR,OVC,0.01,WeatherDisplay:10.37,2013-09-17 20:18:00,
2013-09-17 16:19:00,66.5,47.8,30.33,NNE,15,1.8,3.5,51,0.00,CLR,OVC,0.01,WeatherDisplay:10.37,2013-09-17 20:19:00,
2013-09-17 16:20:00,66.5,48.8,30.33,NE,47,2.6,4.0,53,0.00,CLR,OVC,0.01,WeatherDisplay:10.37,2013-09-17 20:20:00,
2013-09-17 16:21:00,66.5,48.8,30.33,NE,47,2.8,4.6,53,0.00,CLR,OVC,0.01,WeatherDisplay:10.37,2013-09-17 20:21:00,
2013-09-17 16:22:00,66.6,48.4,30.33,NNE,31,3.1,6.0,52,0.00,CLR,OVC,0.01,WeatherDisplay:10.37,2013-09-17 20:22:00,
2013-09-17 16:23:00,66.5,47.8,30.33,NNE,30,4.9,8.1,51,0.00,CLR,OVC,0.01,WeatherDisplay:10.37,2013-09-17 20:23:00,
2013-09-17 16:25:00,66.5,47.8,30.33,NNE,28,5.9,9.2,51,0.00,CLR,OVC,0.01,WeatherDisplay:10.37,2013-09-17 20:25:00,
2013-09-17 16:26:00,66.5,46.7,30.33,NNE,29,4.9,9.2,49,0.00,CLR,OVC,0.01,WeatherDisplay:10.37,2013-09-17 20:26:00,
2013-09-17 16:27:00,66.5,47.3,30.33,NNE,29,3.1,6.9,50,0.00,CLR,OVC,0.01,WeatherDisplay:10.37,2013-09-17 20:27:00,
2013-09-17 16:28:00,66.5,46.7,30.33,NNE,22,5.7,6.9,49,0.00,CLR,OVC,0.01,WeatherDisplay:10.37,2013-09-17 20:28:00,
2013-09-17 16:30:00,66.4,46.1,30.33,NNE,22,5.8,8.1,48,0.00,CLR,OVC,0.01,WeatherDisplay:10.37,2013-09-17 20:30:00,
2013-09-17 16:31:00,66.3,46.0,30.33,NNE,28,3.6,4.6,48,0.00,CLR,OVC,0.01,WeatherDisplay:10.37,2013-09-17 20:31:00,
2013-09-17 16:32:00,66.4,46.1,30.33,NNE,28,2.9,4.6,48,0.00,CLR,OVC,0.01,WeatherDisplay:10.37,2013-09-17 20:32:00,
2013-09-17 16:33:00,66.3,46.6,30.33,NNE,28,2.7,3.5,49,0.00,CLR,OVC,0.01,WeatherDisplay:10.37,2013-09-17 20:33:00,
2013-09-17 16:35:00,66.3,47.1,30.33,NNE,28,2.8,3.5,50,0.00,CLR,OVC,0.01,WeatherDisplay:10.37,2013-09-17 20:35:00,
2013-09-17 16:37:00,66.5,47.8,30.33,NNE,21,3.3,4.6,51,0.00,CLR,OVC,0.01,WeatherDisplay:10.37,2013-09-17 20:37:00,
2013-09-17 16:38:00,66.6,47.4,30.33,NNE,20,1.9,4.0,50,0.00,CLR,OVC,0.01,WeatherDisplay:10.37,2013-09-17 20:38:00,
2013-09-17 16:40:00,66.6,46.8,30.33,NNE,19,3.7,4.6,49,0.00,CLR,OVC,0.01,WeatherDisplay:10.37,2013-09-17 20:40:00,
2013-09-17 16:42:00,66.8,48.1,30.33,NNE,18,2.1,3.5,51,0.00,CLR,OVC,0.01,WeatherDisplay:10.37,2013-09-17 20:42:00,
2013-09-17 16:44:00,67.0,49.3,30.33,NNE,18,1.9,5.0,53,0.00,CLR,OVC,0.01,WeatherDisplay:10.37,2013-09-17 20:44:00,
2013-09-17 16:45:00,67.1,48.9,30.33,NNE,18,2.7,4.6,52,0.00,CLR,OVC,0.01,WeatherDisplay:10.37,2013-09-17 20:45:00,
2013-09-17 16:46:00,67.2,49.5,30.33,NNE,17,2.8,3.5,53,0.00,CLR,OVC,0.01,WeatherDisplay:10.37,2013-09-17 20:46:00,
2013-09-17 16:47:00,67.3,49.1,30.33,NNE,17,2.5,4.0,52,0.00,CLR,OVC,0.01,WeatherDisplay:10.37,2013-09-17 20:47:00,
2013-09-17 16:49:00,67.4,47.6,30.33,NNE,17,2.9,4.6,49,0.00,CLR,OVC,0.01,WeatherDisplay:10.37,2013-09-17 20:49:00,
2013-09-17 16:50:00,67.5,47.7,30.33,NNE,17,1.9,3.5,49,0.00,CLR,OVC,0.01,WeatherDisplay:10.37,2013-09-17 20:50:00,
2013-09-17 16:51:00,67.5,48.2,30.33,NNE,17,2.0,3.5,50,0.00,CLR,OVC,0.01,WeatherDisplay:10.37,2013-09-17 20:51:00,
2013-09-17 16:52:00,67.5,47.7,30.33,NNE,17,1.4,3.5,49,0.00,CLR,OVC,0.01,WeatherDisplay:10.37,2013-09-17 20:52:00,
2013-09-17 16:54:00,67.7,48.4,30.33,ENE,68,3.3,4.6,50,0.00,CLR,OVC,0.01,WeatherDisplay:10.37,2013-09-17 20:54:00,
2013-09-17 16:55:00,67.8,48.5,30.33,ENE,68,2.5,3.5,50,0.00,CLR,OVC,0.01,WeatherDisplay:10.37,2013-09-17 20:55:00,
2013-09-17 16:56:00,68.0,49.2,30.33,ENE,68,1.2,3.5,51,0.00,CLR,OVC,0.01,WeatherDisplay:10.37,2013-09-17 20:56:00,
2013-09-17 16:57:00,68.1,49.3,30.33,ENE,68,2.4,4.0,51,0.00,CLR,OVC,0.01,WeatherDisplay:10.37,2013-09-17 20:57:00,
2013-09-17 17:00:00,68.3,47.8,30.33,ENE,68,3.3,4.0,48,0.00,CLR,OVC,0.01,WeatherDisplay:10.37,2013-09-17 21:00:00,
2013-09-17 17:01:00,68.3,47.8,30.33,ENE,68,3.6,5.8,48,0.00,CLR,OVC,0.01,WeatherDisplay:10.37,2013-09-17 21:01:00,
2013-09-17 17:02:00,68.3,47.3,30.33,NE,47,3.7,4.6,47,0.00,CLR,OVC,0.01,WeatherDisplay:10.37,2013-09-17 21:02:00,
2013-09-17 17:03:00,68.3,47.3,30.33,NE,47,2.4,5.0,47,0.00,CLR,OVC,0.01,WeatherDisplay:10.37,2013-09-17 21:03:00,
2013-09-17 17:06:00,68.2,47.2,30.33,NE,47,3.3,4.6,47,0.00,CLR,OVC,0.01,WeatherDisplay:10.37,2013-09-17 21:06:00,
2013-09-17 17:07:00,68.1,47.1,30.33,NE,47,2.9,4.6,47,0.00,CLR,OVC,0.01,WeatherDisplay:10.37,2013-09-17 21:07:00,
2013-09-17 17:08:00,68.1,48.2,30.32,NE,54,3.6,5.0,49,0.00,CLR,OVC,0.01,WeatherDisplay:10.37,2013-09-17 21:08:00,
2013-09-17 17:11:00,67.9,47.5,30.32,NE,56,0.9,2.3,48,0.00,CLR,OVC,0.02,WeatherDisplay:10.37,2013-09-17 21:11:00,
2013-09-17 17:12:00,67.9,48.0,30.32,NE,36,3.0,5.0,49,0.01,RA,OVC,0.02,WeatherDisplay:10.37,2013-09-17 21:12:00,
2013-09-17 17:13:00,67.8,47.9,30.32,NNE,28,3.9,4.6,49,0.01,RA,OVC,0.02,WeatherDisplay:10.37,2013-09-17 21:13:00,
2013-09-17 17:16:00,67.8,49.5,30.32,NNE,28,0.9,2.3,52,0.01,RA,OVC,0.02,WeatherDisplay:10.37,2013-09-17 21:16:00,
2013-09-17 17:18:00,67.9,49.6,30.32,NNE,27,0.7,3.0,52,0.01,RA,OVC,0.02,WeatherDisplay:10.37,2013-09-17 21:18:00,
2013-09-17 17:21:00,68.1,49.8,30.32,NNE,28,1.6,3.5,52,0.01,RA,OVC,0.02,WeatherDisplay:10.37,2013-09-17 21:21:00,
2013-09-17 17:22:00,68.1,49.8,30.32,NNE,28,1.8,4.0,52,0.01,,OVC,0.02,WeatherDisplay:10.37,2013-09-17 21:22:00,
2013-09-17 17:23:00,68.1,48.8,30.32,NNE,28,3.8,4.6,50,0.01,,OVC,0.02,WeatherDisplay:10.37,2013-09-17 21:23:00,
2013-09-17 17:26:00,68.2,48.8,30.31,NE,42,2.9,4.6,50,0.01,CLR,OVC,0.02,WeatherDisplay:10.37,2013-09-17 21:26:00,
2013-09-17 17:27:00,68.2,48.8,30.32,NE,42,2.4,4.6,50,0.01,CLR,OVC,0.02,WeatherDisplay:10.37,2013-09-17 21:27:00,
2013-09-17 17:28:00,68.3,48.9,30.32,NE,42,1.0,2.3,50,0.01,CLR,OVC,0.02,WeatherDisplay:10.37,2013-09-17 21:28:00,
2013-09-17 17:29:00,68.3,49.5,30.32,NE,42,1.5,2.3,51,0.01,CLR,OVC,0.02,WeatherDisplay:10.37,2013-09-17 21:29:00,
2013-09-17 17:32:00,68.4,48.5,30.32,NNE,28,3.8,4.6,49,0.01,CLR,OVC,0.02,WeatherDisplay:10.37,2013-09-17 21:32:00,
2013-09-17 17:33:00,68.3,48.4,30.31,NNE,28,2.7,4.6,49,0.01,CLR,OVC,0.02,WeatherDisplay:10.37,2013-09-17 21:33:00,
2013-09-17 17:34:00,68.3,48.4,30.32,NNE,28,1.6,3.5,49,0.01,CLR,OVC,0.02,WeatherDisplay:10.37,2013-09-17 21:34:00,
2013-09-17 17:37:00,68.0,48.1,30.31,NNE,28,1.8,3.5,49,0.01,CLR,OVC,0.02,WeatherDisplay:10.37,2013-09-17 21:37:00,
2013-09-17 17:38:00,67.9,48.6,30.31,NNE,28,1.6,3.5,50,0.01,CLR,OVC,0.02,WeatherDisplay:10.37,2013-09-17 21:38:00,
2013-09-17 17:39:00,67.9,48.6,30.31,NNE,28,2.1,3.5,50,0.01,CLR,OVC,0.02,WeatherDisplay:10.37,2013-09-17 21:39:00,
2013-09-17 17:42:00,67.8,48.5,30.31,NE,35,1.5,3.5,50,0.01,CLR,OVC,0.02,WeatherDisplay:10.37,2013-09-17 21:42:00,
2013-09-17 17:43:00,67.9,49.1,30.31,NE,35,1.8,3.5,51,0.01,CLR,OVC,0.02,WeatherDisplay:10.37,2013-09-17 21:43:00,
2013-09-17 17:45:00,67.8,47.9,30.31,NE,35,2.6,3.5,49,0.01,CLR,OVC,0.02,WeatherDisplay:10.37,2013-09-17 21:45:00,
2013-09-17 17:47:00,67.8,48.5,30.31,NE,35,1.5,2.3,50,0.01,CLR,OVC,0.02,WeatherDisplay:10.37,2013-09-17 21:47:00,
2013-09-17 17:48:00,67.8,50.0,30.31,NE,35,0.4,2.3,53,0.01,CLR,OVC,0.02,WeatherDisplay:10.37,2013-09-17 21:48:00,
2013-09-17 17:49:00,67.8,50.0,30.31,NE,35,0.1,2.3,53,0.01,CLR,OVC,0.02,WeatherDisplay:10.37,2013-09-17 21:49:00,
2013-09-17 17:50:00,67.8,50.0,30.31,NE,35,0.2,1.2,53,0.01,CLR,OVC,0.02,WeatherDisplay:10.37,2013-09-17 21:50:00,
2013-09-17 17:53:00,67.9,49.6,30.31,NE,35,1.1,2.3,52,0.01,CLR,OVC,0.02,WeatherDisplay:10.37,2013-09-17 21:53:00,
2013-09-17 17:54:00,68.0,49.7,30.31,NE,35,1.6,2.3,52,0.01,CLR,OVC,0.02,WeatherDisplay:10.37,2013-09-17 21:54:00,
2013-09-17 17:55:00,68.0,49.7,30.31,NE,35,1.3,3.0,52,0.01,CLR,OVC,0.02,WeatherDisplay:10.37,2013-09-17 21:55:00,
2013-09-17 17:59:00,68.1,49.8,30.31,NE,35,1.0,2.3,52,0.01,CLR,OVC,0.02,WeatherDisplay:10.37,2013-09-17 21:59:00,
2013-09-17 18:00:00,68.1,50.3,30.31,NE,35,0.9,2.3,53,0.01,CLR,OVC,0.02,WeatherDisplay:10.37,2013-09-17 22:00:00,
2013-09-17 18:04:00,68.3,51.5,30.32,NE,35,0.5,1.2,55,0.01,CLR,OVC,0.02,WeatherDisplay:10.37,2013-09-17 22:04:00,
2013-09-17 18:05:00,68.3,52.0,30.31,NE,35,0.5,1.2,56,0.01,CLR,OVC,0.02,WeatherDisplay:10.37,2013-09-17 22:05:00,
2013-09-17 18:06:00,68.3,52.5,30.32,NE,35,0.2,1.2,57,0.01,CLR,OVC,0.02,WeatherDisplay:10.37,2013-09-17 22:06:00,
2013-09-17 18:09:00,68.2,52.4,30.31,NE,35,0.8,2.3,57,0.01,CLR,OVC,0.02,WeatherDisplay:10.37,2013-09-17 22:09:00,
2013-09-17 18:10:00,68.2,51.9,30.31,NE,35,0.9,2.3,56,0.01,CLR,OVC,0.02,WeatherDisplay:10.37,2013-09-17 22:10:00,
2013-09-17 18:12:00,68.1,50.8,30.31,NE,35,1.3,2.3,54,0.00,CLR,OVC,0.02,WeatherDisplay:10.37,2013-09-17 22:12:00,
2013-09-17 18:14:00,68.1,51.8,30.31,NE,35,1.2,1.2,56,0.00,CLR,OVC,0.02,WeatherDisplay:10.37,2013-09-17 22:14:00,
2013-09-17 18:15:00,68.1,51.8,30.31,NE,35,1.1,2.3,56,0.00,CLR,OVC,0.02,WeatherDisplay:10.37,2013-09-17 22:15:00,
2013-09-17 18:18:00,68.2,51.9,30.31,NE,35,0.0,1.2,56,0.00,CLR,OVC,0.02,WeatherDisplay:10.37,2013-09-17 22:18:00,
2013-09-17 18:19:00,68.1,52.3,30.31,NE,35,1.3,2.0,57,0.00,CLR,OVC,0.02,WeatherDisplay:10.37,2013-09-17 22:19:00,
2013-09-17 18:20:00,68.0,52.2,30.31,NE,35,1.4,2.3,57,0.00,CLR,OVC,0.02,WeatherDisplay:10.37,2013-09-17 22:20:00,
2013-09-17 18:21:00,67.9,52.1,30.31,NE,35,1.2,2.3,57,0.00,CLR,OVC,0.02,WeatherDisplay:10.37,2013-09-17 22:21:00,
2013-09-17 18:23:00,67.3,52.5,30.31,NE,35,1.5,2.3,59,0.00,CLR,OVC,0.02,WeatherDisplay:10.37,2013-09-17 22:23:00,
2013-09-17 18:25:00,67.0,52.7,30.31,NE,35,1.0,2.3,60,0.00,CLR,OVC,0.02,WeatherDisplay:10.37,2013-09-17 22:25:00,
2013-09-17 18:26:00,66.9,53.0,30.31,NE,35,1.2,2.3,61,0.00,CLR,OVC,0.02,WeatherDisplay:10.37,2013-09-17 22:26:00,
2013-09-17 18:28:00,66.6,52.7,30.31,NE,35,1.2,2.3,61,0.00,CLR,OVC,0.02,WeatherDisplay:10.37,2013-09-17 22:28:00,
2013-09-17 18:30:00,66.5,53.1,30.31,NE,35,1.1,2.3,62,0.00,CLR,OVC,0.02,WeatherDisplay:10.37,2013-09-17 22:30:00,
2013-09-17 18:31:00,66.4,52.5,30.31,NE,35,1.3,2.3,61,0.00,CLR,OVC,0.02,WeatherDisplay:10.37,2013-09-17 22:31:00,
2013-09-17 18:34:00,66.2,53.2,30.31,NE,35,2.5,3.5,63,0.00,CLR,OVC,0.02,WeatherDisplay:10.37,2013-09-17 22:34:00,
2013-09-17 18:35:00,66.0,53.0,30.31,NE,35,2.5,3.5,63,0.00,CLR,OVC,0.02,WeatherDisplay:10.37,2013-09-17 22:35:00,
2013-09-17 18:36:00,65.9,53.4,30.31,NE,35,2.6,3.5,64,0.00,CLR,OVC,0.02,WeatherDisplay:10.37,2013-09-17 22:36:00,
2013-09-17 18:39:00,65.5,53.8,30.31,NE,35,3.1,3.5,66,0.00,CLR,OVC,0.02,WeatherDisplay:10.37,2013-09-17 22:39:00,
2013-09-17 18:40:00,65.2,53.6,30.31,NE,35,3.3,4.0,66,0.00,CLR,OVC,0.02,WeatherDisplay:10.37,2013-09-17 22:40:00,
2013-09-17 18:41:00,64.9,53.7,30.31,NE,35,3.2,4.0,67,0.00,CLR,OVC,0.02,WeatherDisplay:10.37,2013-09-17 22:41:00,
2013-09-17 18:44:00,64.1,53.3,30.31,NE,35,3.4,4.0,68,0.00,CLR,OVC,0.02,WeatherDisplay:10.37,2013-09-17 22:44:00,
2013-09-17 18:45:00,63.7,53.3,30.31,NE,35,3.4,4.0,69,0.00,CLR,OVC,0.02,WeatherDisplay:10.37,2013-09-17 22:45:00,
2013-09-17 18:46:00,63.6,53.2,30.31,NE,35,3.3,4.0,69,0.00,CLR,OVC,0.02,WeatherDisplay:10.37,2013-09-17 22:46:00,
2013-09-17 18:49:00,62.6,52.7,30.31,NE,35,3.6,4.0,70,0.00,CLR,OVC,0.02,WeatherDisplay:10.37,2013-09-17 22:49:00,
2013-09-17 18:50:00,62.4,52.5,30.31,NE,35,3.7,4.0,70,0.00,CLR,OVC,0.02,WeatherDisplay:10.37,2013-09-17 22:50:00,
2013-09-17 18:51:00,62.2,52.7,30.31,NE,35,3.8,4.6,71,0.00,CLR,OVC,0.02,WeatherDisplay:10.37,2013-09-17 22:51:00,
2013-09-17 18:52:00,62.0,52.5,30.31,NE,35,3.6,4.6,71,0.00,CLR,OVC,0.02,WeatherDisplay:10.37,2013-09-17 22:52:00,
2013-09-17 18:54:00,61.3,52.2,30.31,NE,35,3.3,4.0,72,0.00,CLR,OVC,0.02,WeatherDisplay:10.37,2013-09-17 22:54:00,
2013-09-17 18:55:00,61.1,52.0,30.31,NE,35,3.7,4.0,72,0.00,CLR,OVC,0.02,WeatherDisplay:10.37,2013-09-17 22:55:00,
2013-09-17 18:56:00,60.9,51.8,30.31,NE,35,3.9,4.0,72,0.00,CLR,OVC,0.02,WeatherDisplay:10.37,2013-09-17 22:56:00,
2013-09-17 18:57:00,60.8,51.7,30.31,NE,35,3.8,4.6,72,0.00,CLR,OVC,0.02,WeatherDisplay:10.37,2013-09-17 22:57:00,
2013-09-17 19:00:00,60.0,51.3,30.30,NE,35,3.4,4.0,73,0.00,CLR,OVC,0.02,WeatherDisplay:10.37,2013-09-17 23:00:00,
2013-09-17 19:01:00,59.7,51.4,30.31,NE,35,3.6,3.6,74,0.00,CLR,OVC,0.02,WeatherDisplay:10.37,2013-09-17 23:01:00,
2013-09-17 19:02:00,59.5,51.2,30.31,NE,35,3.3,3.5,74,0.00,CLR,OVC,0.02,WeatherDisplay:10.37,2013-09-17 23:02:00,
2013-09-17 19:05:00,58.9,51.0,30.31,NE,35,3.8,5.0,75,0.00,CLR,OVC,0.02,WeatherDisplay:10.37,2013-09-17 23:05:00,
2013-09-17 19:06:00,58.6,50.7,30.31,NE,35,3.9,4.6,75,0.00,CLR,OVC,0.02,WeatherDisplay:10.37,2013-09-17 23:06:00,
2013-09-17 19:07:00,58.4,50.9,30.31,NE,35,3.7,4.6,76,0.00,CLR,OVC,0.02,WeatherDisplay:10.37,2013-09-17 23:07:00,
2013-09-17 19:10:00,57.7,50.2,30.30,NE,35,3.5,3.5,76,0.00,CLR,OVC,0.02,WeatherDisplay:10.37,2013-09-17 23:10:00,
2013-09-17 19:11:00,57.6,50.4,30.30,NE,35,3.6,3.6,77,0.00,CLR,OVC,0.02,WeatherDisplay:10.37,2013-09-17 23:11:00,
2013-09-17 19:12:00,57.3,50.1,30.30,NE,35,3.8,4.6,77,0.00,CLR,OVC,0.02,WeatherDisplay:10.37,2013-09-17 23:12:00,
2013-09-17 19:16:00,56.8,50.0,30.30,NE,35,3.0,3.5,78,0.00,CLR,OVC,0.02,WeatherDisplay:10.37,2013-09-17 23:16:00,
2013-09-17 19:18:00,56.5,49.7,30.31,NE,35,1.7,3.5,78,0.00,CLR,OVC,0.02,WeatherDisplay:10.37,2013-09-17 23:18:00,
2013-09-17 19:21:00,56.0,49.9,30.31,NE,35,1.5,2.3,80,0.00,CLR,OVC,0.02,WeatherDisplay:10.37,2013-09-17 23:21:00,
2013-09-17 19:23:00,55.7,49.6,30.31,NE,35,0.1,2.0,80,0.00,CLR,OVC,0.02,WeatherDisplay:10.37,2013-09-17 23:23:00,
2013-09-17 19:26:00,55.2,49.8,30.31,NE,35,3.6,3.6,82,0.00,CLR,OVC,0.02,WeatherDisplay:10.37,2013-09-17 23:26:00,
2013-09-17 19:27:00,55.1,49.7,30.31,NE,35,4.4,5.0,82,0.00,CLR,OVC,0.02,WeatherDisplay:10.37,2013-09-17 23:27:00,
2013-09-17 19:28:00,54.8,49.4,30.31,NE,41,5.1,5.8,82,0.00,CLR,OVC,0.02,WeatherDisplay:10.37,2013-09-17 23:28:00,
2013-09-17 19:31:00,54.4,49.3,30.31,NE,44,5.0,5.8,83,0.00,CLR,OVC,0.02,WeatherDisplay:10.37,2013-09-17 23:31:00,
2013-09-17 19:32:00,54.2,49.1,30.31,NE,44,4.8,5.8,83,0.00,CLR,OVC,0.02,WeatherDisplay:10.37,2013-09-17 23:32:00,
2013-09-17 19:34:00,54.0,49.0,30.31,NE,44,4.8,5.8,83,0.00,CLR,OVC,0.02,WeatherDisplay:10.37,2013-09-17 23:34:00,
2013-09-17 19:36:00,53.9,48.9,30.31,NE,44,4.3,5.0,83,0.00,CLR,OVC,0.02,WeatherDisplay:10.37,2013-09-17 23:36:00,
2013-09-17 19:37:00,53.9,48.9,30.31,NE,44,4.2,4.6,83,0.00,CLR,OVC,0.02,WeatherDisplay:10.37,2013-09-17 23:37:00,
2013-09-17 19:39:00,53.8,48.8,30.31,NE,43,3.4,5.0,83,0.00,CLR,OVC,0.02,WeatherDisplay:10.37,2013-09-17 23:39:00,
2013-09-17 19:41:00,53.6,48.6,30.31,NE,44,3.8,4.6,83,0.00,CLR,OVC,0.02,WeatherDisplay:10.37,2013-09-17 23:41:00,
2013-09-17 19:42:00,53.6,48.9,30.31,NE,44,3.6,4.6,84,0.00,CLR,OVC,0.02,WeatherDisplay:10.37,2013-09-17 23:42:00,
2013-09-17 19:44:00,53.4,48.7,30.31,NE,44,0.8,3.5,84,0.00,CLR,OVC,0.02,WeatherDisplay:10.37,2013-09-17 23:44:00,
2013-09-17 19:46:00,53.4,48.7,30.31,NE,44,0.2,1.2,84,0.00,CLR,OVC,0.02,WeatherDisplay:10.37,2013-09-17 23:46:00,
2013-09-17 19:47:00,53.3,48.6,30.31,NE,44,0.4,1.2,84,0.00,CLR,OVC,0.02,WeatherDisplay:10.37,2013-09-17 23:47:00,
2013-09-17 19:50:00,53.2,48.5,30.31,NE,44,2.9,4.0,84,0.00,CLR,OVC,0.02,WeatherDisplay:10.37,2013-09-17 23:50:00,
2013-09-17 19:52:00,53.1,48.4,30.31,NE,44,3.6,4.0,84,0.00,CLR,OVC,0.02,WeatherDisplay:10.37,2013-09-17 23:52:00,
2013-09-17 19:55:00,52.9,48.2,30.31,NE,44,3.5,3.5,84,0.00,CLR,OVC,0.02,WeatherDisplay:10.37,2013-09-17 23:55:00,
2013-09-17 19:57:00,52.7,48.0,30.31,NE,44,1.2,3.5,84,0.00,CLR,OVC,0.02,WeatherDisplay:10.37,2013-09-17 23:57:00,
2013-09-17 20:00:00,52.5,48.1,30.31,NE,44,0.9,2.3,85,0.00,CLR,OVC,0.02,WeatherDisplay:10.37,2013-09-18 00:00:00,
2013-09-17 20:02:00,52.4,48.0,30.31,NE,44,0.0,1.2,85,0.00,CLR,OVC,0.02,WeatherDisplay:10.37,2013-09-18 00:02:00,
2013-09-17 20:03:00,52.2,47.8,30.31,NE,44,0.0,0.0,85,0.00,CLR,OVC,0.02,WeatherDisplay:10.37,2013-09-18 00:03:00,
2013-09-17 20:05:00,52.1,48.0,30.31,NE,44,0.0,0.0,86,0.00,CLR,OVC,0.02,WeatherDisplay:10.37,2013-09-18 00:05:00,
2013-09-17 20:07:00,52.0,47.9,30.31,NE,44,0.0,0.0,86,0.00,CLR,OVC,0.02,WeatherDisplay:10.37,2013-09-18 00:07:00,
2013-09-17 20:08:00,51.9,47.8,30.31,NE,44,0.0,0.0,86,0.00,CLR,OVC,0.02,WeatherDisplay:10.37,2013-09-18 00:08:00,
2013-09-17 20:10:00,51.8,48.1,30.31,NE,44,1.1,2.3,87,0.00,CLR,OVC,0.02,WeatherDisplay:10.37,2013-09-18 00:10:00,
2013-09-17 20:12:00,51.7,48.0,30.31,NE,44,1.5,3.0,87,0.00,CLR,OVC,0.02,WeatherDisplay:10.37,2013-09-18 00:12:00,
2013-09-17 20:13:00,51.7,48.0,30.31,NE,44,2.5,4.0,87,0.00,CLR,OVC,0.02,WeatherDisplay:10.37,2013-09-18 00:13:00,
2013-09-17 20:16:00,51.5,47.8,30.31,NE,44,2.9,3.5,87,0.00,CLR,OVC,0.02,WeatherDisplay:10.37,2013-09-18 00:16:00,
2013-09-17 20:17:00,51.5,47.8,30.31,NE,44,3.2,4.0,87,0.00,CLR,OVC,0.02,WeatherDisplay:10.37,2013-09-18 00:17:00,
2013-09-17 20:18:00,51.5,47.8,30.31,NE,44,3.0,3.5,87,0.00,CLR,OVC,0.02,WeatherDisplay:10.37,2013-09-18 00:18:00,
2013-09-17 20:22:00,51.3,47.9,30.31,NE,44,0.0,1.2,88,0.00,CLR,OVC,0.02,WeatherDisplay:10.37,2013-09-18 00:22:00,
2013-09-17 20:23:00,51.3,47.6,30.31,NE,44,0.0,0.0,87,0.00,CLR,OVC,0.02,WeatherDisplay:10.37,2013-09-18 00:23:00,
2013-09-17 20:27:00,51.1,47.7,30.31,NE,44,0.0,1.2,88,0.00,CLR,OVC,0.02,WeatherDisplay:10.37,2013-09-18 00:27:00,
2013-09-17 20:28:00,51.1,47.7,30.31,NE,44,0.0,0.0,88,0.00,CLR,OVC,0.02,WeatherDisplay:10.37,2013-09-18 00:28:00,
2013-09-17 20:29:00,51.0,47.6,30.31,NE,44,0.0,0.0,88,0.00,CLR,OVC,0.02,WeatherDisplay:10.37,2013-09-18 00:29:00,
2013-09-17 20:32:00,50.8,47.4,30.31,NE,44,0.0,0.0,88,0.00,CLR,OVC,0.02,WeatherDisplay:10.37,2013-09-18 00:32:00,
2013-09-17 20:33:00,50.8,47.4,30.31,NE,44,0.0,0.0,88,0.00,CLR,OVC,0.02,WeatherDisplay:10.37,2013-09-18 00:33:00,
2013-09-17 20:34:00,50.7,47.3,30.31,NE,44,0.0,0.0,88,0.00,CLR,OVC,0.02,WeatherDisplay:10.37,2013-09-18 00:34:00,
2013-09-17 20:37:00,50.5,47.1,30.31,NE,44,0.0,1.0,88,0.00,CLR,OVC,0.02,WeatherDisplay:10.37,2013-09-18 00:37:00,
2013-09-17 20:38:00,50.5,47.1,30.31,NE,44,1.0,2.3,88,0.00,CLR,OVC,0.02,WeatherDisplay:10.37,2013-09-18 00:38:00,
2013-09-17 20:39:00,50.4,47.3,30.31,NE,44,1.2,2.3,89,0.00,CLR,OVC,0.02,WeatherDisplay:10.37,2013-09-18 00:39:00,
2013-09-17 20:42:00,50.3,47.2,30.31,NE,44,0.9,2.3,89,0.00,CLR,OVC,0.02,WeatherDisplay:10.37,2013-09-18 00:42:00,
2013-09-17 20:43:00,50.2,47.1,30.31,NE,44,0.8,2.3,89,0.00,CLR,OVC,0.02,WeatherDisplay:10.37,2013-09-18 00:43:00,
2013-09-17 20:45:00,50.1,47.0,30.31,NE,44,1.8,2.3,89,0.00,CLR,OVC,0.02,WeatherDisplay:10.37,2013-09-18 00:45:00,
2013-09-17 20:48:00,50.0,47.2,30.31,NE,44,2.4,3.5,90,0.00,CLR,OVC,0.02,WeatherDisplay:10.37,2013-09-18 00:48:00,
2013-09-17 20:50:00,49.8,47.0,30.31,NE,44,1.6,3.5,90,0.00,CLR,OVC,0.02,WeatherDisplay:10.37,2013-09-18 00:50:00,
2013-09-17 20:53:00,49.7,46.9,30.31,NE,44,2.0,3.5,90,0.00,CLR,OVC,0.02,WeatherDisplay:10.37,2013-09-18 00:53:00,
2013-09-17 20:55:00,49.6,46.8,30.31,NE,44,2.1,2.3,90,0.00,CLR,OVC,0.02,WeatherDisplay:10.37,2013-09-18 00:55:00,
2013-09-17 20:58:00,49.5,46.7,30.31,NE,44,2.7,3.5,90,0.00,CLR,OVC,0.02,WeatherDisplay:10.37,2013-09-18 00:58:00,
2013-09-17 21:00:00,49.5,46.7,30.31,NE,44,2.0,3.5,90,0.00,CLR,OVC,0.02,WeatherDisplay:10.37,2013-09-18 01:00:00,
2013-09-17 21:03:00,49.4,46.6,30.31,NE,44,2.4,3.5,90,0.00,CLR,OVC,0.02,WeatherDisplay:10.37,2013-09-18 01:03:00,
2013-09-17 21:05:00,49.3,46.8,30.31,NE,44,2.1,3.5,91,0.00,CLR,OVC,0.02,WeatherDisplay:10.37,2013-09-18 01:05:00,
2013-09-17 21:06:00,49.3,46.8,30.31,NE,44,2.2,3.5,91,0.00,CLR,OVC,0.02,WeatherDisplay:10.37,2013-09-18 01:06:00,
2013-09-17 21:08:00,49.3,46.8,30.31,NE,44,1.7,3.5,91,0.00,CLR,OVC,0.02,WeatherDisplay:10.37,2013-09-18 01:08:00,
2013-09-17 21:10:00,49.3,46.8,30.31,NE,44,1.5,2.3,91,0.00,CLR,OVC,0.02,WeatherDisplay:10.37,2013-09-18 01:10:00,
2013-09-17 21:11:00,49.2,46.7,30.31,NE,44,1.4,2.3,91,0.00,CLR,OVC,0.02,WeatherDisplay:10.37,2013-09-18 01:11:00,
2013-09-17 21:13:00,49.3,46.8,30.31,NE,44,0.2,2.3,91,0.00,CLR,OVC,0.02,WeatherDisplay:10.37,2013-09-18 01:13:00,
2013-09-17 21:16:00,49.3,46.8,30.31,NE,44,2.0,2.3,91,0.00,CLR,OVC,0.02,WeatherDisplay:10.37,2013-09-18 01:16:00,
2013-09-17 21:18:00,49.3,47.1,30.31,NE,44,1.6,2.3,92,0.00,CLR,OVC,0.02,WeatherDisplay:10.37,2013-09-18 01:18:00,
2013-09-17 21:19:00,49.3,46.8,30.31,NE,44,1.6,2.3,91,0.00,CLR,OVC,0.02,WeatherDisplay:10.37,2013-09-18 01:19:00,
2013-09-17 21:21:00,49.2,47.0,30.31,NE,44,1.4,2.3,92,0.00,CLR,OVC,0.02,WeatherDisplay:10.37,2013-09-18 01:21:00,
2013-09-17 21:23:00,49.2,47.0,30.31,NE,44,2.2,3.5,92,0.00,CLR,OVC,0.02,WeatherDisplay:10.37,2013-09-18 01:23:00,
2013-09-17 21:24:00,49.2,46.7,30.31,NE,44,2.3,3.5,91,0.00,CLR,OVC,0.02,WeatherDisplay:10.37,2013-09-18 01:24:00,
2013-09-17 21:26:00,49.1,46.9,30.31,NE,44,1.8,3.5,92,0.00,CLR,OVC,0.02,WeatherDisplay:10.37,2013-09-18 01:26:00,
2013-09-17 21:28:00,49.0,46.8,30.31,NE,44,0.7,2.3,92,0.00,CLR,OVC,0.02,WeatherDisplay:10.37,2013-09-18 01:28:00,
2013-09-17 21:29:00,49.0,46.8,30.31,NE,44,1.0,2.3,92,0.00,CLR,OVC,0.02,WeatherDisplay:10.37,2013-09-18 01:29:00,
2013-09-17 21:31:00,49.0,46.8,30.31,NE,44,2.3,3.5,92,0.00,CLR,OVC,0.02,WeatherDisplay:10.37,2013-09-18 01:31:00,
2013-09-17 21:34:00,48.9,46.7,30.31,NE,44,1.1,2.3,92,0.00,CLR,OVC,0.02,WeatherDisplay:10.37,2013-09-18 01:34:00,
2013-09-17 21:36:00,48.9,46.7,30.31,NE,44,0.2,2.3,92,0.00,CLR,OVC,0.02,WeatherDisplay:10.37,2013-09-18 01:36:00,
2013-09-17 21:39:00,48.8,46.6,30.31,NE,44,0.4,2.0,92,0.00,CLR,OVC,0.02,WeatherDisplay:10.37,2013-09-18 01:39:00,
2013-09-17 21:41:00,48.8,46.6,30.31,NE,44,2.3,3.5,92,0.00,CLR,OVC,0.02,WeatherDisplay:10.37,2013-09-18 01:41:00,
2013-09-17 21:42:00,48.8,46.9,30.31,NE,44,1.8,3.5,93,0.00,CLR,OVC,0.02,WeatherDisplay:10.37,2013-09-18 01:42:00,
2013-09-17 21:44:00,48.7,46.5,30.31,NE,44,0.8,1.2,92,0.00,CLR,OVC,0.02,WeatherDisplay:10.37,2013-09-18 01:44:00,
2013-09-17 21:45:00,48.7,46.8,30.31,NE,44,0.4,1.2,93,0.00,CLR,OVC,0.02,WeatherDisplay:10.37,2013-09-18 01:45:00,
2013-09-17 21:46:00,48.7,46.5,30.31,NE,44,0.0,1.2,92,0.00,CLR,OVC,0.02,WeatherDisplay:10.37,2013-09-18 01:46:00,
2013-09-17 21:47:00,48.7,46.8,30.31,NE,44,0.0,1.2,93,0.00,CLR,OVC,0.02,WeatherDisplay:10.37,2013-09-18 01:47:00,
2013-09-17 21:49:00,48.7,46.8,30.31,NE,44,0.5,1.0,93,0.00,CLR,OVC,0.02,WeatherDisplay:10.37,2013-09-18 01:49:00,
2013-09-17 21:50:00,48.7,46.8,30.31,NE,44,0.5,2.3,93,0.00,CLR,OVC,0.02,WeatherDisplay:10.37,2013-09-18 01:50:00,
2013-09-17 21:51:00,48.7,46.8,30.30,NE,44,0.0,1.2,93,0.00,CLR,OVC,0.02,WeatherDisplay:10.37,2013-09-18 01:51:00,
2013-09-17 21:53:00,48.7,46.8,30.30,NE,44,0.5,1.2,93,0.00,CLR,OVC,0.02,WeatherDisplay:10.37,2013-09-18 01:53:00,
2013-09-17 21:54:00,48.7,46.8,30.30,NE,44,0.1,1.2,93,0.00,CLR,OVC,0.02,WeatherDisplay:10.37,2013-09-18 01:54:00,
2013-09-17 21:55:00,48.7,46.8,30.30,NE,44,0.2,1.0,93,0.00,CLR,OVC,0.02,WeatherDisplay:10.37,2013-09-18 01:55:00,
2013-09-17 21:57:00,48.7,46.8,30.31,NE,44,0.0,1.2,93,0.00,CLR,OVC,0.02,WeatherDisplay:10.37,2013-09-18 01:57:00,
2013-09-17 21:58:00,48.6,46.7,30.30,NE,44,0.7,1.2,93,0.00,CLR,OVC,0.02,WeatherDisplay:10.37,2013-09-18 01:58:00,
2013-09-17 21:59:00,48.6,46.7,30.31,NE,44,1.2,2.3,93,0.00,CLR,OVC,0.02,WeatherDisplay:10.37,2013-09-18 01:59:00,
2013-09-17 22:00:00,48.6,46.7,30.30,NE,44,1.6,2.3,93,0.00,CLR,OVC,0.02,WeatherDisplay:10.37,2013-09-18 02:00:00,
2013-09-17 22:02:00,48.5,46.6,30.30,NE,44,0.9,2.3,93,0.00,CLR,OVC,0.02,WeatherDisplay:10.37,2013-09-18 02:02:00,
2013-09-17 22:03:00,48.5,46.6,30.30,NE,44,0.8,2.3,93,0.00,CLR,OVC,0.02,WeatherDisplay:10.37,2013-09-18 02:03:00,
2013-09-17 22:04:00,48.5,46.9,30.31,NE,44,1.1,2.3,94,0.00,CLR,OVC,0.02,WeatherDisplay:10.37,2013-09-18 02:04:00,
2013-09-17 22:05:00,48.5,46.9,30.31,NE,44,1.0,2.3,94,0.00,CLR,OVC,0.02,WeatherDisplay:10.37,2013-09-18 02:05:00,
2013-09-17 22:07:00,48.4,46.8,30.31,NE,44,0.7,1.2,94,0.00,CLR,OVC,0.02,WeatherDisplay:10.37,2013-09-18 02:07:00,
2013-09-17 22:08:00,48.4,46.8,30.31,NE,44,0.7,2.0,94,0.00,CLR,OVC,0.02,WeatherDisplay:10.37,2013-09-18 02:08:00,
2013-09-17 22:09:00,48.4,46.8,30.31,NE,44,1.4,2.3,94,0.00,CLR,OVC,0.02,WeatherDisplay:10.37,2013-09-18 02:09:00,
2013-09-17 22:10:00,48.3,46.7,30.31,NE,44,1.0,2.3,94,0.00,CLR,OVC,0.02,WeatherDisplay:10.37,2013-09-18 02:10:00,
2013-09-17 22:12:00,48.3,46.7,30.31,NE,44,1.1,2.0,94,0.00,CLR,OVC,0.02,WeatherDisplay:10.37,2013-09-18 02:12:00,
2013-09-17 22:13:00,48.3,46.7,30.31,NE,44,1.5,2.3,94,0.00,CLR,OVC,0.02,WeatherDisplay:10.37,2013-09-18 02:13:00,
2013-09-17 22:15:00,48.2,46.6,30.31,NE,44,1.6,2.3,94,0.00,CLR,OVC,0.02,WeatherDisplay:10.37,2013-09-18 02:15:00,
2013-09-17 22:17:00,48.2,46.6,30.31,NE,44,0.0,2.3,94,0.00,CLR,OVC,0.02,WeatherDisplay:10.37,2013-09-18 02:17:00,
2013-09-17 22:18:00,48.2,46.6,30.30,NE,44,0.5,3.0,94,0.00,CLR,OVC,0.02,WeatherDisplay:10.37,2013-09-18 02:18:00,
2013-09-17 22:20:00,48.2,46.6,30.31,NE,44,1.6,3.5,94,0.00,CLR,OVC,0.02,WeatherDisplay:10.37,2013-09-18 02:20:00,
2013-09-17 22:22:00,48.2,46.6,30.31,NE,44,0.0,0.0,94,0.00,CLR,OVC,0.02,WeatherDisplay:10.37,2013-09-18 02:22:00,
2013-09-17 22:23:00,48.1,46.5,30.30,NE,44,0.2,1.2,94,0.00,CLR,OVC,0.02,WeatherDisplay:10.37,2013-09-18 02:23:00,
2013-09-17 22:25:00,48.1,46.5,30.30,NE,44,0.0,1.2,94,0.00,CLR,OVC,0.02,WeatherDisplay:10.37,2013-09-18 02:25:00,
2013-09-17 22:27:00,48.1,46.5,30.30,NE,44,0.0,0.0,94,0.00,CLR,OVC,0.02,WeatherDisplay:10.37,2013-09-18 02:27:00,
2013-09-17 22:29:00,48.1,46.5,30.30,NE,44,0.0,0.0,94,0.00,CLR,OVC,0.02,WeatherDisplay:10.37,2013-09-18 02:29:00,
2013-09-17 22:30:00,48.1,46.5,30.30,NE,44,0.0,0.0,94,0.00,CLR,OVC,0.02,WeatherDisplay:10.37,2013-09-18 02:30:00,
2013-09-17 22:33:00,48.0,46.6,30.30,NE,44,0.0,0.0,95,0.00,CLR,OVC,0.02,WeatherDisplay:10.37,2013-09-18 02:33:00,
2013-09-17 22:34:00,48.0,46.6,30.30,NE,44,0.0,0.0,95,0.00,CLR,OVC,0.02,WeatherDisplay:10.37,2013-09-18 02:34:00,
2013-09-17 22:35:00,48.0,46.6,30.30,NE,44,0.0,0.0,95,0.00,CLR,OVC,0.02,WeatherDisplay:10.37,2013-09-18 02:35:00,
2013-09-17 22:36:00,48.0,46.6,30.30,NE,44,0.0,0.0,95,0.00,CLR,OVC,0.02,WeatherDisplay:10.37,2013-09-18 02:36:00,
2013-09-17 22:38:00,47.9,46.5,30.30,NE,44,0.0,0.0,95,0.00,CLR,OVC,0.02,WeatherDisplay:10.37,2013-09-18 02:38:00,
2013-09-17 22:39:00,47.9,46.5,30.31,NE,44,0.0,0.0,95,0.00,CLR,OVC,0.02,WeatherDisplay:10.37,2013-09-18 02:39:00,
2013-09-17 22:40:00,47.9,46.5,30.30,NE,44,0.0,0.0,95,0.00,CLR,OVC,0.02,WeatherDisplay:10.37,2013-09-18 02:40:00,
2013-09-17 22:41:00,48.0,46.6,30.30,NE,44,0.0,0.0,95,0.00,CLR,OVC,0.02,WeatherDisplay:10.37,2013-09-18 02:41:00,
2013-09-17 22:43:00,47.9,46.5,30.30,NE,44,0.0,0.0,95,0.00,CLR,OVC,0.02,WeatherDisplay:10.37,2013-09-18 02:43:00,
2013-09-17 22:45:00,47.9,46.5,30.30,NE,44,0.4,1.2,95,0.00,CLR,OVC,0.02,WeatherDisplay:10.37,2013-09-18 02:45:00,
2013-09-17 22:46:00,47.8,46.4,30.31,NE,44,1.5,2.3,95,0.00,CLR,OVC,0.02,WeatherDisplay:10.37,2013-09-18 02:46:00,
2013-09-17 22:48:00,47.8,46.4,30.30,NE,44,1.6,2.3,95,0.00,CLR,OVC,0.02,WeatherDisplay:10.37,2013-09-18 02:48:00,
2013-09-17 22:50:00,47.7,46.6,30.30,NE,44,0.5,2.3,96,0.00,CLR,OVC,0.02,WeatherDisplay:10.37,2013-09-18 02:50:00,
2013-09-17 22:51:00,47.7,46.3,30.30,NE,44,0.4,2.3,95,0.00,CLR,OVC,0.02,WeatherDisplay:10.37,2013-09-18 02:51:00,
2013-09-17 22:53:00,47.7,46.3,30.30,NE,44,1.3,2.3,95,0.00,CLR,OVC,0.02,WeatherDisplay:10.37,2013-09-18 02:53:00,
2013-09-17 22:55:00,47.7,46.6,30.30,NE,44,0.6,2.3,96,0.00,CLR,OVC,0.02,WeatherDisplay:10.37,2013-09-18 02:55:00,
2013-09-17 22:56:00,47.7,46.3,30.31,NE,44,0.6,1.2,95,0.00,CLR,OVC,0.02,WeatherDisplay:10.37,2013-09-18 02:56:00,
2013-09-17 22:59:00,47.6,46.5,30.31,NE,44,0.0,1.2,96,0.00,CLR,OVC,0.02,WeatherDisplay:10.37,2013-09-18 02:59:00,
2013-09-17 23:00:00,47.6,46.5,30.31,NE,44,0.0,0.0,96,0.00,CLR,OVC,0.02,WeatherDisplay:10.37,2013-09-18 03:00:00,
2013-09-17 23:01:00,47.6,46.5,30.31,NE,44,0.1,0.0,96,0.00,CLR,OVC,0.02,WeatherDisplay:10.37,2013-09-18 03:01:00,
2013-09-17 23:04:00,47.6,46.5,30.30,NE,44,0.2,1.2,96,0.00,CLR,OVC,0.02,WeatherDisplay:10.37,2013-09-18 03:04:00,
2013-09-17 23:06:00,47.6,46.5,30.30,NE,44,0.6,2.3,96,0.00,CLR,OVC,0.02,WeatherDisplay:10.37,2013-09-18 03:06:00,
2013-09-17 23:10:00,47.6,46.5,30.30,NE,44,0.1,1.2,96,0.00,CLR,OVC,0.02,WeatherDisplay:10.37,2013-09-18 03:10:00,
2013-09-17 23:11:00,47.6,46.5,30.30,NE,44,1.4,2.3,96,0.00,CLR,OVC,0.02,WeatherDisplay:10.37,2013-09-18 03:11:00,
2013-09-17 23:15:00,47.5,46.4,30.30,NE,44,0.0,1.2,96,0.00,CLR,OVC,0.02,WeatherDisplay:10.37,2013-09-18 03:15:00,
2013-09-17 23:16:00,47.6,46.5,30.30,NE,44,0.2,0.0,96,0.00,CLR,OVC,0.02,WeatherDisplay:10.37,2013-09-18 03:16:00,
2013-09-17 23:17:00,47.6,46.5,30.30,NE,44,0.1,1.2,96,0.00,CLR,OVC,0.02,WeatherDisplay:10.37,2013-09-18 03:17:00,
2013-09-17 23:20:00,47.6,46.5,30.30,NE,44,1.2,2.3,96,0.00,CLR,OVC,0.02,WeatherDisplay:10.37,2013-09-18 03:20:00,
2013-09-17 23:21:00,47.6,46.5,30.30,NE,44,0.9,2.3,96,0.00,CLR,OVC,0.02,WeatherDisplay:10.37,2013-09-18 03:21:00,
2013-09-17 23:22:00,47.5,46.4,30.30,NE,44,0.9,2.3,96,0.00,CLR,OVC,0.02,WeatherDisplay:10.37,2013-09-18 03:22:00,
2013-09-17 23:25:00,47.5,46.4,30.30,NE,44,0.0,0.0,96,0.00,CLR,OVC,0.02,WeatherDisplay:10.37,2013-09-18 03:25:00,
2013-09-17 23:26:00,47.5,46.7,30.30,NE,44,0.0,0.0,97,0.00,CLR,OVC,0.02,WeatherDisplay:10.37,2013-09-18 03:26:00,
2013-09-17 23:27:00,47.5,46.4,30.30,NE,44,0.0,0.0,96,0.00,CLR,OVC,0.02,WeatherDisplay:10.37,2013-09-18 03:27:00,
2013-09-17 23:30:00,47.4,46.6,30.30,NE,44,0.0,0.0,97,0.00,CLR,OVC,0.02,WeatherDisplay:10.37,2013-09-18 03:30:00,
2013-09-17 23:31:00,47.4,46.6,30.30,NE,44,0.0,0.0,97,0.00,CLR,OVC,0.02,WeatherDisplay:10.37,2013-09-18 03:31:00,
2013-09-17 23:32:00,47.4,46.6,30.30,NE,44,0.0,0.0,97,0.00,CLR,OVC,0.02,WeatherDisplay:10.37,2013-09-18 03:32:00,
2013-09-17 23:35:00,47.4,46.6,30.30,NE,44,0.0,0.0,97,0.00,CLR,OVC,0.02,WeatherDisplay:10.37,2013-09-18 03:35:00,
2013-09-17 23:36:00,47.5,46.7,30.30,NE,44,0.1,1.2,97,0.00,CLR,OVC,0.02,WeatherDisplay:10.37,2013-09-18 03:36:00,
2013-09-17 23:37:00,47.4,46.6,30.30,NE,44,0.6,2.0,97,0.00,CLR,OVC,0.02,WeatherDisplay:10.37,2013-09-18 03:37:00,
2013-09-17 23:40:00,47.5,46.7,30.30,NE,44,2.2,3.5,97,0.00,CLR,OVC,0.02,WeatherDisplay:10.37,2013-09-18 03:40:00,
2013-09-17 23:42:00,47.5,46.7,30.30,NE,44,2.2,3.5,97,0.00,CLR,OVC,0.02,WeatherDisplay:10.37,2013-09-18 03:42:00,
2013-09-17 23:46:00,47.4,46.3,30.30,NE,44,1.3,2.3,96,0.00,CLR,OVC,0.02,WeatherDisplay:10.37,2013-09-18 03:46:00,
2013-09-17 23:47:00,47.3,46.2,30.30,NE,44,1.2,2.3,96,0.00,CLR,OVC,0.02,WeatherDisplay:10.37,2013-09-18 03:47:00,
2013-09-17 23:51:00,47.0,45.9,30.30,NE,44,1.7,2.3,96,0.00,CLR,OVC,0.02,WeatherDisplay:10.37,2013-09-18 03:51:00,
2013-09-17 23:52:00,47.0,46.2,30.30,NE,44,1.4,2.3,97,0.00,CLR,OVC,0.02,WeatherDisplay:10.37,2013-09-18 03:52:00,
2013-09-17 23:53:00,46.9,45.8,30.29,NE,44,1.1,2.3,96,0.00,CLR,OVC,0.02,WeatherDisplay:10.37,2013-09-18 03:53:00,
2013-09-17 23:57:00,46.8,46.0,30.30,NE,44,0.0,0.0,97,0.00,CLR,OVC,0.02,WeatherDisplay:10.37,2013-09-18 03:57:00,
2013-09-17 23:58:00,46.7,45.9,30.30,NE,44,0.0,0.0,97,0.00,CLR,OVC,0.02,WeatherDisplay:10.37,2013-09-18 03:58:00,